<?xml version="1.0" encoding="UTF-8"?>
<gpx xmlns="http://www.topografix.com/GPX/1/1" xmlns:xsi="http://www.w3.org/2001/XMLSchema-instance" version="1.1" xsi:schemaLocation="http://www.topografix.com/GPX/1/1 http://www.topografix.com/GPX/1/1/gpx.xsd">
  <metadata>
    <name>Tri Star Triathlon - Olympic Aquabike</name>
  </metadata>
  <trk>
    <name>Tri Star Triathlon - Olympic Aquabike</name>
    <trkseg>
      <trkpt lat="35.963102" lon="-83.896942">
        <ele>250.778375</ele>
        <time>2024-05-11T07:27:26.000Z</time>
      </trkpt>
      <trkpt lat="35.963107" lon="-83.896936">
        <ele>250.778385</ele>
        <time>2024-05-11T07:27:26.000Z</time>
      </trkpt>
      <trkpt lat="35.963217" lon="-83.896941">
        <ele>250.77838</ele>
        <time>2024-05-11T07:27:27.000Z</time>
      </trkpt>
      <trkpt lat="35.963785" lon="-83.897135">
        <ele>250.778372</ele>
        <time>2024-05-11T07:27:34.000Z</time>
      </trkpt>
      <trkpt lat="35.96385" lon="-83.897247">
        <ele>250.778385</ele>
        <time>2024-05-11T07:27:35.000Z</time>
      </trkpt>
      <trkpt lat="35.963993" lon="-83.897712">
        <ele>251.121096</ele>
        <time>2024-05-11T07:27:39.000Z</time>
      </trkpt>
      <trkpt lat="35.964066" lon="-83.898131">
        <ele>251.493182</ele>
        <time>2024-05-11T07:27:43.000Z</time>
      </trkpt>
      <trkpt lat="35.964212" lon="-83.898313">
        <ele>251.707039</ele>
        <time>2024-05-11T07:27:45.000Z</time>
      </trkpt>
      <trkpt lat="35.964428" lon="-83.89831">
        <ele>251.951734</ele>
        <time>2024-05-11T07:27:47.000Z</time>
      </trkpt>
      <trkpt lat="35.964426" lon="-83.89761">
        <ele>252.557192</ele>
        <time>2024-05-11T07:27:53.000Z</time>
      </trkpt>
      <trkpt lat="35.96448" lon="-83.897286">
        <ele>252.899669</ele>
        <time>2024-05-11T07:27:56.000Z</time>
      </trkpt>
      <trkpt lat="35.964544" lon="-83.897189">
        <ele>253.075519</ele>
        <time>2024-05-11T07:27:57.000Z</time>
      </trkpt>
      <trkpt lat="35.964672" lon="-83.897105">
        <ele>253.282419</ele>
        <time>2024-05-11T07:27:59.000Z</time>
      </trkpt>
      <trkpt lat="35.96501" lon="-83.897116">
        <ele>253.805502</ele>
        <time>2024-05-11T07:28:03.000Z</time>
      </trkpt>
      <trkpt lat="35.965109" lon="-83.897048">
        <ele>254.001675</ele>
        <time>2024-05-11T07:28:04.000Z</time>
      </trkpt>
      <trkpt lat="35.965138" lon="-83.897005">
        <ele>254.064735</ele>
        <time>2024-05-11T07:28:05.000Z</time>
      </trkpt>
      <trkpt lat="35.965183" lon="-83.89691">
        <ele>254.194995</ele>
        <time>2024-05-11T07:28:06.000Z</time>
      </trkpt>
      <trkpt lat="35.96522" lon="-83.896785">
        <ele>254.37852</ele>
        <time>2024-05-11T07:28:07.000Z</time>
      </trkpt>
      <trkpt lat="35.96523" lon="-83.896592">
        <ele>254.605373</ele>
        <time>2024-05-11T07:28:09.000Z</time>
      </trkpt>
      <trkpt lat="35.965353" lon="-83.894616">
        <ele>257.501948</ele>
        <time>2024-05-11T07:28:27.000Z</time>
      </trkpt>
      <trkpt lat="35.965398" lon="-83.894288">
        <ele>258.030779</ele>
        <time>2024-05-11T07:28:30.000Z</time>
      </trkpt>
      <trkpt lat="35.965492" lon="-83.893991">
        <ele>258.536743</ele>
        <time>2024-05-11T07:28:33.000Z</time>
      </trkpt>
      <trkpt lat="35.965881" lon="-83.892747">
        <ele>259.376813</ele>
        <time>2024-05-11T07:28:45.000Z</time>
      </trkpt>
      <trkpt lat="35.966234" lon="-83.891701">
        <ele>259.769625</ele>
        <time>2024-05-11T07:28:55.000Z</time>
      </trkpt>
      <trkpt lat="35.966495" lon="-83.890935">
        <ele>259.25827</ele>
        <time>2024-05-11T07:29:02.000Z</time>
      </trkpt>
      <trkpt lat="35.966902" lon="-83.890027">
        <ele>258.541029</ele>
        <time>2024-05-11T07:29:11.000Z</time>
      </trkpt>
      <trkpt lat="35.967348" lon="-83.88913">
        <ele>258.557853</ele>
        <time>2024-05-11T07:29:20.000Z</time>
      </trkpt>
      <trkpt lat="35.967404" lon="-83.889021">
        <ele>258.616347</ele>
        <time>2024-05-11T07:29:21.000Z</time>
      </trkpt>
      <trkpt lat="35.968178" lon="-83.887295">
        <ele>259.293836</ele>
        <time>2024-05-11T07:29:39.000Z</time>
      </trkpt>
      <trkpt lat="35.968741" lon="-83.886131">
        <ele>259.293997</ele>
        <time>2024-05-11T07:29:51.000Z</time>
      </trkpt>
      <trkpt lat="35.970027" lon="-83.883378">
        <ele>257.385931</ele>
        <time>2024-05-11T07:30:20.000Z</time>
      </trkpt>
      <trkpt lat="35.970173" lon="-83.882862">
        <ele>257.902581</ele>
        <time>2024-05-11T07:30:25.000Z</time>
      </trkpt>
      <trkpt lat="35.970229" lon="-83.881874">
        <ele>258.844091</ele>
        <time>2024-05-11T07:30:34.000Z</time>
      </trkpt>
      <trkpt lat="35.970277" lon="-83.881578">
        <ele>259.869895</ele>
        <time>2024-05-11T07:30:37.000Z</time>
      </trkpt>
      <trkpt lat="35.970202" lon="-83.881299">
        <ele>261.184329</ele>
        <time>2024-05-11T07:30:40.000Z</time>
      </trkpt>
      <trkpt lat="35.970234" lon="-83.880885">
        <ele>262.968482</ele>
        <time>2024-05-11T07:30:44.000Z</time>
      </trkpt>
      <trkpt lat="35.970322" lon="-83.880108">
        <ele>266.427535</ele>
        <time>2024-05-11T07:30:51.000Z</time>
      </trkpt>
      <trkpt lat="35.970471" lon="-83.879316">
        <ele>269.886289</ele>
        <time>2024-05-11T07:30:58.000Z</time>
      </trkpt>
      <trkpt lat="35.9705" lon="-83.879016">
        <ele>271.17833</ele>
        <time>2024-05-11T07:31:01.000Z</time>
      </trkpt>
      <trkpt lat="35.970513" lon="-83.878785">
        <ele>272.09909</ele>
        <time>2024-05-11T07:31:03.000Z</time>
      </trkpt>
      <trkpt lat="35.97046" lon="-83.878078">
        <ele>275.051701</ele>
        <time>2024-05-11T07:31:09.000Z</time>
      </trkpt>
      <trkpt lat="35.970282" lon="-83.876908">
        <ele>278.699953</ele>
        <time>2024-05-11T07:31:20.000Z</time>
      </trkpt>
      <trkpt lat="35.970269" lon="-83.876643">
        <ele>279.128374</ele>
        <time>2024-05-11T07:31:22.000Z</time>
      </trkpt>
      <trkpt lat="35.970285" lon="-83.876499">
        <ele>279.344427</ele>
        <time>2024-05-11T07:31:23.000Z</time>
      </trkpt>
      <trkpt lat="35.970367" lon="-83.876352">
        <ele>279.630172</ele>
        <time>2024-05-11T07:31:25.000Z</time>
      </trkpt>
      <trkpt lat="35.970633" lon="-83.876074">
        <ele>280.343044</ele>
        <time>2024-05-11T07:31:29.000Z</time>
      </trkpt>
      <trkpt lat="35.970747" lon="-83.875885">
        <ele>280.696447</ele>
        <time>2024-05-11T07:31:31.000Z</time>
      </trkpt>
      <trkpt lat="35.97075" lon="-83.875811">
        <ele>280.838783</ele>
        <time>2024-05-11T07:31:32.000Z</time>
      </trkpt>
      <trkpt lat="35.970702" lon="-83.875636">
        <ele>281.121676</ele>
        <time>2024-05-11T07:31:34.000Z</time>
      </trkpt>
      <trkpt lat="35.970553" lon="-83.875469">
        <ele>281.336006</ele>
        <time>2024-05-11T07:31:36.000Z</time>
      </trkpt>
      <trkpt lat="35.970408" lon="-83.875294">
        <ele>280.827621</ele>
        <time>2024-05-11T07:31:38.000Z</time>
      </trkpt>
      <trkpt lat="35.970223" lon="-83.874934">
        <ele>279.923321</ele>
        <time>2024-05-11T07:31:42.000Z</time>
      </trkpt>
      <trkpt lat="35.970151" lon="-83.874578">
        <ele>279.20248</ele>
        <time>2024-05-11T07:31:45.000Z</time>
      </trkpt>
      <trkpt lat="35.970162" lon="-83.874187">
        <ele>278.388183</ele>
        <time>2024-05-11T07:31:49.000Z</time>
      </trkpt>
      <trkpt lat="35.97025" lon="-83.873991">
        <ele>277.941622</ele>
        <time>2024-05-11T07:31:51.000Z</time>
      </trkpt>
      <trkpt lat="35.970381" lon="-83.873889">
        <ele>277.581318</ele>
        <time>2024-05-11T07:31:53.000Z</time>
      </trkpt>
      <trkpt lat="35.970488" lon="-83.873875">
        <ele>277.313788</ele>
        <time>2024-05-11T07:31:54.000Z</time>
      </trkpt>
      <trkpt lat="35.97079" lon="-83.873977">
        <ele>276.424957</ele>
        <time>2024-05-11T07:31:57.000Z</time>
      </trkpt>
      <trkpt lat="35.970945" lon="-83.873912">
        <ele>275.867608</ele>
        <time>2024-05-11T07:31:59.000Z</time>
      </trkpt>
      <trkpt lat="35.97103" lon="-83.873775">
        <ele>275.41634</ele>
        <time>2024-05-11T07:32:01.000Z</time>
      </trkpt>
      <trkpt lat="35.97107" lon="-83.873602">
        <ele>274.961996</ele>
        <time>2024-05-11T07:32:03.000Z</time>
      </trkpt>
      <trkpt lat="35.971047" lon="-83.872912">
        <ele>273.204664</ele>
        <time>2024-05-11T07:32:09.000Z</time>
      </trkpt>
      <trkpt lat="35.971104" lon="-83.872662">
        <ele>272.562806</ele>
        <time>2024-05-11T07:32:11.000Z</time>
      </trkpt>
      <trkpt lat="35.971303" lon="-83.872393">
        <ele>271.614082</ele>
        <time>2024-05-11T07:32:14.000Z</time>
      </trkpt>
      <trkpt lat="35.97162" lon="-83.872084">
        <ele>270.831735</ele>
        <time>2024-05-11T07:32:18.000Z</time>
      </trkpt>
      <trkpt lat="35.971815" lon="-83.871841">
        <ele>270.436258</ele>
        <time>2024-05-11T07:32:21.000Z</time>
      </trkpt>
      <trkpt lat="35.97194" lon="-83.871615">
        <ele>270.128717</ele>
        <time>2024-05-11T07:32:23.000Z</time>
      </trkpt>
      <trkpt lat="35.971997" lon="-83.8713">
        <ele>269.758122</ele>
        <time>2024-05-11T07:32:26.000Z</time>
      </trkpt>
      <trkpt lat="35.972002" lon="-83.87119">
        <ele>269.619333</ele>
        <time>2024-05-11T07:32:27.000Z</time>
      </trkpt>
      <trkpt lat="35.971954" lon="-83.870713">
        <ele>269.058243</ele>
        <time>2024-05-11T07:32:31.000Z</time>
      </trkpt>
      <trkpt lat="35.971954" lon="-83.870446">
        <ele>268.751599</ele>
        <time>2024-05-11T07:32:33.000Z</time>
      </trkpt>
      <trkpt lat="35.972706" lon="-83.868718">
        <ele>266.673096</ele>
        <time>2024-05-11T07:32:51.000Z</time>
      </trkpt>
      <trkpt lat="35.972813" lon="-83.868419">
        <ele>266.342882</ele>
        <time>2024-05-11T07:32:54.000Z</time>
      </trkpt>
      <trkpt lat="35.972863" lon="-83.868066">
        <ele>265.545621</ele>
        <time>2024-05-11T07:32:57.000Z</time>
      </trkpt>
      <trkpt lat="35.972854" lon="-83.86785">
        <ele>265.028054</ele>
        <time>2024-05-11T07:32:59.000Z</time>
      </trkpt>
      <trkpt lat="35.97282" lon="-83.867633">
        <ele>264.512153</ele>
        <time>2024-05-11T07:33:01.000Z</time>
      </trkpt>
      <trkpt lat="35.972591" lon="-83.866324">
        <ele>261.377343</ele>
        <time>2024-05-11T07:33:13.000Z</time>
      </trkpt>
      <trkpt lat="35.972586" lon="-83.866262">
        <ele>261.25622</ele>
        <time>2024-05-11T07:33:14.000Z</time>
      </trkpt>
      <trkpt lat="35.972485" lon="-83.86579">
        <ele>260.868359</ele>
        <time>2024-05-11T07:33:18.000Z</time>
      </trkpt>
      <trkpt lat="35.972361" lon="-83.865181">
        <ele>260.435783</ele>
        <time>2024-05-11T07:33:24.000Z</time>
      </trkpt>
      <trkpt lat="35.972097" lon="-83.864064">
        <ele>259.66693</ele>
        <time>2024-05-11T07:33:34.000Z</time>
      </trkpt>
      <trkpt lat="35.972181" lon="-83.86406">
        <ele>259.670791</ele>
        <time>2024-05-11T07:33:35.000Z</time>
      </trkpt>
      <trkpt lat="35.97233" lon="-83.864032">
        <ele>259.678898</ele>
        <time>2024-05-11T07:33:37.000Z</time>
      </trkpt>
      <trkpt lat="35.972945" lon="-83.86402">
        <ele>259.710139</ele>
        <time>2024-05-11T07:33:44.000Z</time>
      </trkpt>
      <trkpt lat="35.973081" lon="-83.863958">
        <ele>259.717194</ele>
        <time>2024-05-11T07:33:46.000Z</time>
      </trkpt>
      <trkpt lat="35.973499" lon="-83.863927">
        <ele>259.739187</ele>
        <time>2024-05-11T07:33:51.000Z</time>
      </trkpt>
      <trkpt lat="35.973558" lon="-83.863859">
        <ele>259.742873</ele>
        <time>2024-05-11T07:33:52.000Z</time>
      </trkpt>
      <trkpt lat="35.973706" lon="-83.863837">
        <ele>259.75021</ele>
        <time>2024-05-11T07:33:54.000Z</time>
      </trkpt>
      <trkpt lat="35.973798" lon="-83.863768">
        <ele>259.755583</ele>
        <time>2024-05-11T07:33:55.000Z</time>
      </trkpt>
      <trkpt lat="35.9739" lon="-83.863764">
        <ele>259.671477</ele>
        <time>2024-05-11T07:33:56.000Z</time>
      </trkpt>
      <trkpt lat="35.974301" lon="-83.863509">
        <ele>258.969235</ele>
        <time>2024-05-11T07:34:01.000Z</time>
      </trkpt>
      <trkpt lat="35.97446" lon="-83.863316">
        <ele>258.641644</ele>
        <time>2024-05-11T07:34:03.000Z</time>
      </trkpt>
      <trkpt lat="35.974526" lon="-83.863196">
        <ele>258.44825</ele>
        <time>2024-05-11T07:34:04.000Z</time>
      </trkpt>
      <trkpt lat="35.974819" lon="-83.862424">
        <ele>257.382447</ele>
        <time>2024-05-11T07:34:12.000Z</time>
      </trkpt>
      <trkpt lat="35.975047" lon="-83.861913">
        <ele>256.608456</ele>
        <time>2024-05-11T07:34:17.000Z</time>
      </trkpt>
      <trkpt lat="35.975525" lon="-83.861321">
        <ele>255.427831</ele>
        <time>2024-05-11T07:34:25.000Z</time>
      </trkpt>
      <trkpt lat="35.975907" lon="-83.86093">
        <ele>254.573966</ele>
        <time>2024-05-11T07:34:31.000Z</time>
      </trkpt>
      <trkpt lat="35.976238" lon="-83.860692">
        <ele>253.892576</ele>
        <time>2024-05-11T07:34:35.000Z</time>
      </trkpt>
      <trkpt lat="35.977156" lon="-83.86011">
        <ele>253.760692</ele>
        <time>2024-05-11T07:34:46.000Z</time>
      </trkpt>
      <trkpt lat="35.977537" lon="-83.859901">
        <ele>253.728047</ele>
        <time>2024-05-11T07:34:51.000Z</time>
      </trkpt>
      <trkpt lat="35.977764" lon="-83.859822">
        <ele>253.708065</ele>
        <time>2024-05-11T07:34:54.000Z</time>
      </trkpt>
      <trkpt lat="35.979073" lon="-83.859681">
        <ele>255.100861</ele>
        <time>2024-05-11T07:35:09.000Z</time>
      </trkpt>
      <trkpt lat="35.97951" lon="-83.859663">
        <ele>255.635025</ele>
        <time>2024-05-11T07:35:14.000Z</time>
      </trkpt>
      <trkpt lat="35.979933" lon="-83.85975">
        <ele>255.975533</ele>
        <time>2024-05-11T07:35:19.000Z</time>
      </trkpt>
      <trkpt lat="35.980436" lon="-83.859899">
        <ele>256.20561</ele>
        <time>2024-05-11T07:35:25.000Z</time>
      </trkpt>
      <trkpt lat="35.981885" lon="-83.860205">
        <ele>256.957117</ele>
        <time>2024-05-11T07:35:41.000Z</time>
      </trkpt>
      <trkpt lat="35.98325" lon="-83.86052">
        <ele>257.939939</ele>
        <time>2024-05-11T07:35:56.000Z</time>
      </trkpt>
      <trkpt lat="35.984562" lon="-83.860777">
        <ele>258.950283</ele>
        <time>2024-05-11T07:36:11.000Z</time>
      </trkpt>
      <trkpt lat="35.984695" lon="-83.860034">
        <ele>259.208064</ele>
        <time>2024-05-11T07:36:18.000Z</time>
      </trkpt>
      <trkpt lat="35.984743" lon="-83.859613">
        <ele>258.997755</ele>
        <time>2024-05-11T07:36:22.000Z</time>
      </trkpt>
      <trkpt lat="35.984765" lon="-83.859307">
        <ele>258.852905</ele>
        <time>2024-05-11T07:36:25.000Z</time>
      </trkpt>
      <trkpt lat="35.984738" lon="-83.858862">
        <ele>258.643385</ele>
        <time>2024-05-11T07:36:29.000Z</time>
      </trkpt>
      <trkpt lat="35.984465" lon="-83.855905">
        <ele>257.767326</ele>
        <time>2024-05-11T07:36:56.000Z</time>
      </trkpt>
      <trkpt lat="35.984416" lon="-83.855531">
        <ele>257.819687</ele>
        <time>2024-05-11T07:36:59.000Z</time>
      </trkpt>
      <trkpt lat="35.984363" lon="-83.855369">
        <ele>257.867219</ele>
        <time>2024-05-11T07:37:01.000Z</time>
      </trkpt>
      <trkpt lat="35.984134" lon="-83.854959">
        <ele>257.993848</ele>
        <time>2024-05-11T07:37:05.000Z</time>
      </trkpt>
      <trkpt lat="35.983944" lon="-83.854749">
        <ele>258.076596</ele>
        <time>2024-05-11T07:37:08.000Z</time>
      </trkpt>
      <trkpt lat="35.983794" lon="-83.854617">
        <ele>258.137512</ele>
        <time>2024-05-11T07:37:10.000Z</time>
      </trkpt>
      <trkpt lat="35.983497" lon="-83.854464">
        <ele>258.242197</ele>
        <time>2024-05-11T07:37:14.000Z</time>
      </trkpt>
      <trkpt lat="35.983149" lon="-83.854424">
        <ele>258.236626</ele>
        <time>2024-05-11T07:37:18.000Z</time>
      </trkpt>
      <trkpt lat="35.982647" lon="-83.854439">
        <ele>257.673185</ele>
        <time>2024-05-11T07:37:24.000Z</time>
      </trkpt>
      <trkpt lat="35.981697" lon="-83.854448">
        <ele>256.613216</ele>
        <time>2024-05-11T07:37:35.000Z</time>
      </trkpt>
      <trkpt lat="35.981144" lon="-83.854427">
        <ele>256.578435</ele>
        <time>2024-05-11T07:37:41.000Z</time>
      </trkpt>
      <trkpt lat="35.980682" lon="-83.854074">
        <ele>257.037703</ele>
        <time>2024-05-11T07:37:47.000Z</time>
      </trkpt>
      <trkpt lat="35.980392" lon="-83.853763">
        <ele>257.368099</ele>
        <time>2024-05-11T07:37:51.000Z</time>
      </trkpt>
      <trkpt lat="35.980292" lon="-83.853603">
        <ele>257.506883</ele>
        <time>2024-05-11T07:37:53.000Z</time>
      </trkpt>
      <trkpt lat="35.980004" lon="-83.852854">
        <ele>258.637661</ele>
        <time>2024-05-11T07:38:00.000Z</time>
      </trkpt>
      <trkpt lat="35.97982" lon="-83.85233">
        <ele>260.016448</ele>
        <time>2024-05-11T07:38:05.000Z</time>
      </trkpt>
      <trkpt lat="35.979763" lon="-83.852088">
        <ele>260.622497</ele>
        <time>2024-05-11T07:38:07.000Z</time>
      </trkpt>
      <trkpt lat="35.979742" lon="-83.851849">
        <ele>261.235372</ele>
        <time>2024-05-11T07:38:09.000Z</time>
      </trkpt>
      <trkpt lat="35.979745" lon="-83.851415">
        <ele>262.298986</ele>
        <time>2024-05-11T07:38:13.000Z</time>
      </trkpt>
      <trkpt lat="35.980009" lon="-83.850184">
        <ele>265.526427</ele>
        <time>2024-05-11T07:38:24.000Z</time>
      </trkpt>
      <trkpt lat="35.980103" lon="-83.849707">
        <ele>266.841189</ele>
        <time>2024-05-11T07:38:28.000Z</time>
      </trkpt>
      <trkpt lat="35.980147" lon="-83.849363">
        <ele>267.737969</ele>
        <time>2024-05-11T07:38:31.000Z</time>
      </trkpt>
      <trkpt lat="35.980262" lon="-83.848086">
        <ele>270.776188</ele>
        <time>2024-05-11T07:38:43.000Z</time>
      </trkpt>
      <trkpt lat="35.98028" lon="-83.847438">
        <ele>272.181861</ele>
        <time>2024-05-11T07:38:49.000Z</time>
      </trkpt>
      <trkpt lat="35.98015" lon="-83.846427">
        <ele>274.113207</ele>
        <time>2024-05-11T07:38:58.000Z</time>
      </trkpt>
      <trkpt lat="35.980091" lon="-83.846177">
        <ele>274.31806</ele>
        <time>2024-05-11T07:39:00.000Z</time>
      </trkpt>
      <trkpt lat="35.980016" lon="-83.846038">
        <ele>274.445884</ele>
        <time>2024-05-11T07:39:02.000Z</time>
      </trkpt>
      <trkpt lat="35.979827" lon="-83.845843">
        <ele>274.663247</ele>
        <time>2024-05-11T07:39:05.000Z</time>
      </trkpt>
      <trkpt lat="35.979611" lon="-83.845689">
        <ele>274.902465</ele>
        <time>2024-05-11T07:39:08.000Z</time>
      </trkpt>
      <trkpt lat="35.979421" lon="-83.845591">
        <ele>275.086775</ele>
        <time>2024-05-11T07:39:10.000Z</time>
      </trkpt>
      <trkpt lat="35.978562" lon="-83.845092">
        <ele>275.953671</ele>
        <time>2024-05-11T07:39:21.000Z</time>
      </trkpt>
      <trkpt lat="35.977737" lon="-83.844621">
        <ele>276.729011</ele>
        <time>2024-05-11T07:39:31.000Z</time>
      </trkpt>
      <trkpt lat="35.9774" lon="-83.844513">
        <ele>277.017979</ele>
        <time>2024-05-11T07:39:35.000Z</time>
      </trkpt>
      <trkpt lat="35.97673" lon="-83.844172">
        <ele>277.135562</ele>
        <time>2024-05-11T07:39:43.000Z</time>
      </trkpt>
      <trkpt lat="35.975959" lon="-83.84369">
        <ele>277.100278</ele>
        <time>2024-05-11T07:39:53.000Z</time>
      </trkpt>
      <trkpt lat="35.975651" lon="-83.843535">
        <ele>277.08635</ele>
        <time>2024-05-11T07:39:57.000Z</time>
      </trkpt>
      <trkpt lat="35.975042" lon="-83.843391">
        <ele>275.731871</ele>
        <time>2024-05-11T07:40:04.000Z</time>
      </trkpt>
      <trkpt lat="35.974781" lon="-83.84333">
        <ele>275.079715</ele>
        <time>2024-05-11T07:40:07.000Z</time>
      </trkpt>
      <trkpt lat="35.974347" lon="-83.843044">
        <ele>273.916692</ele>
        <time>2024-05-11T07:40:12.000Z</time>
      </trkpt>
      <trkpt lat="35.974143" lon="-83.842874">
        <ele>273.308075</ele>
        <time>2024-05-11T07:40:15.000Z</time>
      </trkpt>
      <trkpt lat="35.973908" lon="-83.842433">
        <ele>272.557453</ele>
        <time>2024-05-11T07:40:20.000Z</time>
      </trkpt>
      <trkpt lat="35.973035" lon="-83.838615">
        <ele>270.42655</ele>
        <time>2024-05-11T07:40:56.000Z</time>
      </trkpt>
      <trkpt lat="35.972934" lon="-83.838391">
        <ele>270.419417</ele>
        <time>2024-05-11T07:40:58.000Z</time>
      </trkpt>
      <trkpt lat="35.972657" lon="-83.83799">
        <ele>271.170859</ele>
        <time>2024-05-11T07:41:03.000Z</time>
      </trkpt>
      <trkpt lat="35.971581" lon="-83.836968">
        <ele>273.503979</ele>
        <time>2024-05-11T07:41:18.000Z</time>
      </trkpt>
      <trkpt lat="35.971166" lon="-83.836859">
        <ele>273.19114</ele>
        <time>2024-05-11T07:41:23.000Z</time>
      </trkpt>
      <trkpt lat="35.97067" lon="-83.836754">
        <ele>272.835831</ele>
        <time>2024-05-11T07:41:29.000Z</time>
      </trkpt>
      <trkpt lat="35.970543" lon="-83.836666">
        <ele>272.730827</ele>
        <time>2024-05-11T07:41:31.000Z</time>
      </trkpt>
      <trkpt lat="35.970443" lon="-83.836556">
        <ele>272.636816</ele>
        <time>2024-05-11T07:41:32.000Z</time>
      </trkpt>
      <trkpt lat="35.970374" lon="-83.836403">
        <ele>272.533505</ele>
        <time>2024-05-11T07:41:34.000Z</time>
      </trkpt>
      <trkpt lat="35.970312" lon="-83.836007">
        <ele>272.305543</ele>
        <time>2024-05-11T07:41:38.000Z</time>
      </trkpt>
      <trkpt lat="35.970439" lon="-83.834666">
        <ele>270.258679</ele>
        <time>2024-05-11T07:41:50.000Z</time>
      </trkpt>
      <trkpt lat="35.970406" lon="-83.834353">
        <ele>269.732736</ele>
        <time>2024-05-11T07:41:53.000Z</time>
      </trkpt>
      <trkpt lat="35.970354" lon="-83.834159">
        <ele>269.412735</ele>
        <time>2024-05-11T07:41:55.000Z</time>
      </trkpt>
      <trkpt lat="35.970003" lon="-83.833617">
        <ele>268.70301</ele>
        <time>2024-05-11T07:42:01.000Z</time>
      </trkpt>
      <trkpt lat="35.969657" lon="-83.833136">
        <ele>268.962792</ele>
        <time>2024-05-11T07:42:07.000Z</time>
      </trkpt>
      <trkpt lat="35.969285" lon="-83.832506">
        <ele>269.290555</ele>
        <time>2024-05-11T07:42:14.000Z</time>
      </trkpt>
      <trkpt lat="35.969181" lon="-83.832117">
        <ele>269.456206</ele>
        <time>2024-05-11T07:42:18.000Z</time>
      </trkpt>
      <trkpt lat="35.969171" lon="-83.831164">
        <ele>268.768149</ele>
        <time>2024-05-11T07:42:27.000Z</time>
      </trkpt>
      <trkpt lat="35.968942" lon="-83.830432">
        <ele>267.99694</ele>
        <time>2024-05-11T07:42:34.000Z</time>
      </trkpt>
      <trkpt lat="35.96856" lon="-83.829507">
        <ele>266.470335</ele>
        <time>2024-05-11T07:42:43.000Z</time>
      </trkpt>
      <trkpt lat="35.968221" lon="-83.828977">
        <ele>264.951655</ele>
        <time>2024-05-11T07:42:49.000Z</time>
      </trkpt>
      <trkpt lat="35.967794" lon="-83.828227">
        <ele>262.845427</ele>
        <time>2024-05-11T07:42:57.000Z</time>
      </trkpt>
      <trkpt lat="35.967625" lon="-83.827773">
        <ele>262.089569</ele>
        <time>2024-05-11T07:43:01.000Z</time>
      </trkpt>
      <trkpt lat="35.967484" lon="-83.827426">
        <ele>261.778695</ele>
        <time>2024-05-11T07:43:04.000Z</time>
      </trkpt>
      <trkpt lat="35.966975" lon="-83.827309">
        <ele>261.27456</ele>
        <time>2024-05-11T07:43:10.000Z</time>
      </trkpt>
      <trkpt lat="35.966322" lon="-83.82711">
        <ele>260.613677</ele>
        <time>2024-05-11T07:43:17.000Z</time>
      </trkpt>
      <trkpt lat="35.965559" lon="-83.82682">
        <ele>260.479177</ele>
        <time>2024-05-11T07:43:26.000Z</time>
      </trkpt>
      <trkpt lat="35.964983" lon="-83.826584">
        <ele>260.443046</ele>
        <time>2024-05-11T07:43:33.000Z</time>
      </trkpt>
      <trkpt lat="35.964076" lon="-83.826092">
        <ele>260.402048</ele>
        <time>2024-05-11T07:43:44.000Z</time>
      </trkpt>
      <trkpt lat="35.963325" lon="-83.825601">
        <ele>260.381365</ele>
        <time>2024-05-11T07:43:53.000Z</time>
      </trkpt>
      <trkpt lat="35.962626" lon="-83.825093">
        <ele>260.278857</ele>
        <time>2024-05-11T07:44:02.000Z</time>
      </trkpt>
      <trkpt lat="35.96242" lon="-83.824913">
        <ele>260.212289</ele>
        <time>2024-05-11T07:44:05.000Z</time>
      </trkpt>
      <trkpt lat="35.961921" lon="-83.824437">
        <ele>260.053581</ele>
        <time>2024-05-11T07:44:12.000Z</time>
      </trkpt>
      <trkpt lat="35.96154" lon="-83.824038">
        <ele>259.929632</ele>
        <time>2024-05-11T07:44:18.000Z</time>
      </trkpt>
      <trkpt lat="35.961409" lon="-83.823887">
        <ele>259.851663</ele>
        <time>2024-05-11T07:44:20.000Z</time>
      </trkpt>
      <trkpt lat="35.960995" lon="-83.823375">
        <ele>259.577543</ele>
        <time>2024-05-11T07:44:27.000Z</time>
      </trkpt>
      <trkpt lat="35.960498" lon="-83.822683">
        <ele>259.222642</ele>
        <time>2024-05-11T07:44:35.000Z</time>
      </trkpt>
      <trkpt lat="35.960197" lon="-83.822158">
        <ele>259.142677</ele>
        <time>2024-05-11T07:44:41.000Z</time>
      </trkpt>
      <trkpt lat="35.95916" lon="-83.820164">
        <ele>260.063565</ele>
        <time>2024-05-11T07:45:02.000Z</time>
      </trkpt>
      <trkpt lat="35.958688" lon="-83.819455">
        <ele>260.754015</ele>
        <time>2024-05-11T07:45:10.000Z</time>
      </trkpt>
      <trkpt lat="35.957999" lon="-83.818487">
        <ele>261.705031</ele>
        <time>2024-05-11T07:45:22.000Z</time>
      </trkpt>
      <trkpt lat="35.957753" lon="-83.818155">
        <ele>262.024633</ele>
        <time>2024-05-11T07:45:26.000Z</time>
      </trkpt>
      <trkpt lat="35.95787" lon="-83.817723">
        <ele>262.344595</ele>
        <time>2024-05-11T07:45:30.000Z</time>
      </trkpt>
      <trkpt lat="35.957871" lon="-83.817694">
        <ele>262.366543</ele>
        <time>2024-05-11T07:45:30.000Z</time>
      </trkpt>
      <trkpt lat="35.958555" lon="-83.815557">
        <ele>263.805672</ele>
        <time>2024-05-11T07:45:51.000Z</time>
      </trkpt>
      <trkpt lat="35.959698" lon="-83.812995">
        <ele>265.798837</ele>
        <time>2024-05-11T07:46:17.000Z</time>
      </trkpt>
      <trkpt lat="35.96049" lon="-83.811984">
        <ele>267.384929</ele>
        <time>2024-05-11T07:46:30.000Z</time>
      </trkpt>
      <trkpt lat="35.960731" lon="-83.811514">
        <ele>268.036762</ele>
        <time>2024-05-11T07:46:35.000Z</time>
      </trkpt>
      <trkpt lat="35.961119" lon="-83.810511">
        <ele>267.927068</ele>
        <time>2024-05-11T07:46:45.000Z</time>
      </trkpt>
      <trkpt lat="35.961671" lon="-83.809224">
        <ele>266.785617</ele>
        <time>2024-05-11T07:46:58.000Z</time>
      </trkpt>
      <trkpt lat="35.961928" lon="-83.807385">
        <ele>261.50924</ele>
        <time>2024-05-11T07:47:15.000Z</time>
      </trkpt>
      <trkpt lat="35.961984" lon="-83.806226">
        <ele>259.389316</ele>
        <time>2024-05-11T07:47:25.000Z</time>
      </trkpt>
      <trkpt lat="35.961998" lon="-83.806167">
        <ele>259.311581</ele>
        <time>2024-05-11T07:47:26.000Z</time>
      </trkpt>
      <trkpt lat="35.96206" lon="-83.805387">
        <ele>258.326812</ele>
        <time>2024-05-11T07:47:33.000Z</time>
      </trkpt>
      <trkpt lat="35.962167" lon="-83.803179">
        <ele>258.904328</ele>
        <time>2024-05-11T07:47:53.000Z</time>
      </trkpt>
      <trkpt lat="35.962234" lon="-83.802811">
        <ele>259.208744</ele>
        <time>2024-05-11T07:47:56.000Z</time>
      </trkpt>
      <trkpt lat="35.962472" lon="-83.802073">
        <ele>260.46352</ele>
        <time>2024-05-11T07:48:03.000Z</time>
      </trkpt>
      <trkpt lat="35.962933" lon="-83.801187">
        <ele>262.438756</ele>
        <time>2024-05-11T07:48:12.000Z</time>
      </trkpt>
      <trkpt lat="35.963259" lon="-83.800744">
        <ele>263.580864</ele>
        <time>2024-05-11T07:48:17.000Z</time>
      </trkpt>
      <trkpt lat="35.963572" lon="-83.800343">
        <ele>264.820005</ele>
        <time>2024-05-11T07:48:22.000Z</time>
      </trkpt>
      <trkpt lat="35.963865" lon="-83.799837">
        <ele>266.133037</ele>
        <time>2024-05-11T07:48:28.000Z</time>
      </trkpt>
      <trkpt lat="35.963909" lon="-83.799767">
        <ele>266.343728</ele>
        <time>2024-05-11T07:48:29.000Z</time>
      </trkpt>
      <trkpt lat="35.964543" lon="-83.798665">
        <ele>269.533062</ele>
        <time>2024-05-11T07:48:41.000Z</time>
      </trkpt>
      <trkpt lat="35.964646" lon="-83.798468">
        <ele>270.219065</ele>
        <time>2024-05-11T07:48:43.000Z</time>
      </trkpt>
      <trkpt lat="35.964833" lon="-83.798071">
        <ele>271.497676</ele>
        <time>2024-05-11T07:48:47.000Z</time>
      </trkpt>
      <trkpt lat="35.965134" lon="-83.797602">
        <ele>273.204715</ele>
        <time>2024-05-11T07:48:52.000Z</time>
      </trkpt>
      <trkpt lat="35.965298" lon="-83.797227">
        <ele>274.42574</ele>
        <time>2024-05-11T07:48:56.000Z</time>
      </trkpt>
      <trkpt lat="35.965352" lon="-83.796367">
        <ele>277.516457</ele>
        <time>2024-05-11T07:49:04.000Z</time>
      </trkpt>
      <trkpt lat="35.965327" lon="-83.795983">
        <ele>278.981646</ele>
        <time>2024-05-11T07:49:07.000Z</time>
      </trkpt>
      <trkpt lat="35.964841" lon="-83.793648">
        <ele>287.753306</ele>
        <time>2024-05-11T07:49:29.000Z</time>
      </trkpt>
      <trkpt lat="35.964806" lon="-83.792641">
        <ele>291.302249</ele>
        <time>2024-05-11T07:49:38.000Z</time>
      </trkpt>
      <trkpt lat="35.964598" lon="-83.791416">
        <ele>293.772948</ele>
        <time>2024-05-11T07:49:49.000Z</time>
      </trkpt>
      <trkpt lat="35.964249" lon="-83.790423">
        <ele>295.694825</ele>
        <time>2024-05-11T07:49:59.000Z</time>
      </trkpt>
      <trkpt lat="35.963731" lon="-83.789469">
        <ele>296.461545</ele>
        <time>2024-05-11T07:50:09.000Z</time>
      </trkpt>
      <trkpt lat="35.963666" lon="-83.789333">
        <ele>296.576673</ele>
        <time>2024-05-11T07:50:10.000Z</time>
      </trkpt>
      <trkpt lat="35.963677" lon="-83.789155">
        <ele>296.696293</ele>
        <time>2024-05-11T07:50:12.000Z</time>
      </trkpt>
      <trkpt lat="35.9637" lon="-83.789107">
        <ele>296.732262</ele>
        <time>2024-05-11T07:50:13.000Z</time>
      </trkpt>
      <trkpt lat="35.963984" lon="-83.78867">
        <ele>297.127781</ele>
        <time>2024-05-11T07:50:18.000Z</time>
      </trkpt>
      <trkpt lat="35.9642" lon="-83.788096">
        <ele>297.649483</ele>
        <time>2024-05-11T07:50:24.000Z</time>
      </trkpt>
      <trkpt lat="35.964142" lon="-83.787213">
        <ele>298.386183</ele>
        <time>2024-05-11T07:50:32.000Z</time>
      </trkpt>
      <trkpt lat="35.964064" lon="-83.78689">
        <ele>298.658051</ele>
        <time>2024-05-11T07:50:35.000Z</time>
      </trkpt>
      <trkpt lat="35.963828" lon="-83.786214">
        <ele>298.698274</ele>
        <time>2024-05-11T07:50:42.000Z</time>
      </trkpt>
      <trkpt lat="35.963309" lon="-83.785466">
        <ele>298.295802</ele>
        <time>2024-05-11T07:50:51.000Z</time>
      </trkpt>
      <trkpt lat="35.962702" lon="-83.784791">
        <ele>297.554873</ele>
        <time>2024-05-11T07:51:00.000Z</time>
      </trkpt>
      <trkpt lat="35.96145" lon="-83.783362">
        <ele>293.569184</ele>
        <time>2024-05-11T07:51:19.000Z</time>
      </trkpt>
      <trkpt lat="35.960284" lon="-83.781876">
        <ele>288.124632</ele>
        <time>2024-05-11T07:51:38.000Z</time>
      </trkpt>
      <trkpt lat="35.959719" lon="-83.780974">
        <ele>283.995876</ele>
        <time>2024-05-11T07:51:48.000Z</time>
      </trkpt>
      <trkpt lat="35.958477" lon="-83.779299">
        <ele>274.550773</ele>
        <time>2024-05-11T07:52:08.000Z</time>
      </trkpt>
      <trkpt lat="35.958502" lon="-83.779092">
        <ele>273.651472</ele>
        <time>2024-05-11T07:52:10.000Z</time>
      </trkpt>
      <trkpt lat="35.958385" lon="-83.778627">
        <ele>271.314631</ele>
        <time>2024-05-11T07:52:14.000Z</time>
      </trkpt>
      <trkpt lat="35.957953" lon="-83.777162">
        <ele>264.052275</ele>
        <time>2024-05-11T07:52:28.000Z</time>
      </trkpt>
      <trkpt lat="35.957949" lon="-83.776642">
        <ele>261.641459</ele>
        <time>2024-05-11T07:52:33.000Z</time>
      </trkpt>
      <trkpt lat="35.958081" lon="-83.776257">
        <ele>259.620116</ele>
        <time>2024-05-11T07:52:37.000Z</time>
      </trkpt>
      <trkpt lat="35.958316" lon="-83.775864">
        <ele>258.373216</ele>
        <time>2024-05-11T07:52:41.000Z</time>
      </trkpt>
      <trkpt lat="35.958544" lon="-83.775266">
        <ele>256.994527</ele>
        <time>2024-05-11T07:52:47.000Z</time>
      </trkpt>
      <trkpt lat="35.958968" lon="-83.774772">
        <ele>255.552684</ele>
        <time>2024-05-11T07:52:53.000Z</time>
      </trkpt>
      <trkpt lat="35.961411" lon="-83.772865">
        <ele>254.589406</ele>
        <time>2024-05-11T07:53:25.000Z</time>
      </trkpt>
      <trkpt lat="35.962074" lon="-83.772304">
        <ele>255.008961</ele>
        <time>2024-05-11T07:53:34.000Z</time>
      </trkpt>
      <trkpt lat="35.962747" lon="-83.771474">
        <ele>255.89871</ele>
        <time>2024-05-11T07:53:45.000Z</time>
      </trkpt>
      <trkpt lat="35.96318" lon="-83.770451">
        <ele>256.957239</ele>
        <time>2024-05-11T07:53:55.000Z</time>
      </trkpt>
      <trkpt lat="35.963361" lon="-83.76911">
        <ele>258.119603</ele>
        <time>2024-05-11T07:54:07.000Z</time>
      </trkpt>
      <trkpt lat="35.963532" lon="-83.76764">
        <ele>259.388648</ele>
        <time>2024-05-11T07:54:20.000Z</time>
      </trkpt>
      <trkpt lat="35.963821" lon="-83.766637">
        <ele>260.301477</ele>
        <time>2024-05-11T07:54:30.000Z</time>
      </trkpt>
      <trkpt lat="35.963848" lon="-83.766016">
        <ele>260.834609</ele>
        <time>2024-05-11T07:54:36.000Z</time>
      </trkpt>
      <trkpt lat="35.963751" lon="-83.764831">
        <ele>261.563529</ele>
        <time>2024-05-11T07:54:47.000Z</time>
      </trkpt>
      <trkpt lat="35.963717" lon="-83.763905">
        <ele>262.101161</ele>
        <time>2024-05-11T07:54:55.000Z</time>
      </trkpt>
      <trkpt lat="35.96381" lon="-83.763624">
        <ele>262.23694</ele>
        <time>2024-05-11T07:54:58.000Z</time>
      </trkpt>
      <trkpt lat="35.964025" lon="-83.763405">
        <ele>262.172014</ele>
        <time>2024-05-11T07:55:01.000Z</time>
      </trkpt>
      <trkpt lat="35.963859" lon="-83.762837">
        <ele>262.05978</ele>
        <time>2024-05-11T07:55:06.000Z</time>
      </trkpt>
      <trkpt lat="35.962557" lon="-83.759915">
        <ele>261.613974</ele>
        <time>2024-05-11T07:55:36.000Z</time>
      </trkpt>
      <trkpt lat="35.962457" lon="-83.759756">
        <ele>261.672284</ele>
        <time>2024-05-11T07:55:38.000Z</time>
      </trkpt>
      <trkpt lat="35.962255" lon="-83.759518">
        <ele>261.925725</ele>
        <time>2024-05-11T07:55:41.000Z</time>
      </trkpt>
      <trkpt lat="35.961805" lon="-83.759129">
        <ele>262.423798</ele>
        <time>2024-05-11T07:55:47.000Z</time>
      </trkpt>
      <trkpt lat="35.961587" lon="-83.758823">
        <ele>262.730881</ele>
        <time>2024-05-11T07:55:51.000Z</time>
      </trkpt>
      <trkpt lat="35.961474" lon="-83.758632">
        <ele>262.901752</ele>
        <time>2024-05-11T07:55:53.000Z</time>
      </trkpt>
      <trkpt lat="35.961382" lon="-83.75834">
        <ele>263.130768</ele>
        <time>2024-05-11T07:55:56.000Z</time>
      </trkpt>
      <trkpt lat="35.960752" lon="-83.75615">
        <ele>262.833739</ele>
        <time>2024-05-11T07:56:17.000Z</time>
      </trkpt>
      <trkpt lat="35.960501" lon="-83.755596">
        <ele>262.944848</ele>
        <time>2024-05-11T07:56:23.000Z</time>
      </trkpt>
      <trkpt lat="35.960241" lon="-83.755095">
        <ele>263.070974</ele>
        <time>2024-05-11T07:56:28.000Z</time>
      </trkpt>
      <trkpt lat="35.960054" lon="-83.754746">
        <ele>263.154892</ele>
        <time>2024-05-11T07:56:32.000Z</time>
      </trkpt>
      <trkpt lat="35.95984" lon="-83.754455">
        <ele>263.240466</ele>
        <time>2024-05-11T07:56:36.000Z</time>
      </trkpt>
      <trkpt lat="35.959384" lon="-83.754004">
        <ele>264.015377</ele>
        <time>2024-05-11T07:56:42.000Z</time>
      </trkpt>
      <trkpt lat="35.959059" lon="-83.753554">
        <ele>264.910988</ele>
        <time>2024-05-11T07:56:47.000Z</time>
      </trkpt>
      <trkpt lat="35.958603" lon="-83.752549">
        <ele>266.590671</ele>
        <time>2024-05-11T07:56:57.000Z</time>
      </trkpt>
      <trkpt lat="35.958278" lon="-83.751789">
        <ele>267.209201</ele>
        <time>2024-05-11T07:57:05.000Z</time>
      </trkpt>
      <trkpt lat="35.958151" lon="-83.751314">
        <ele>267.570358</ele>
        <time>2024-05-11T07:57:10.000Z</time>
      </trkpt>
      <trkpt lat="35.95802" lon="-83.750675">
        <ele>268.039788</ele>
        <time>2024-05-11T07:57:16.000Z</time>
      </trkpt>
      <trkpt lat="35.958031" lon="-83.750325">
        <ele>268.091278</ele>
        <time>2024-05-11T07:57:19.000Z</time>
      </trkpt>
      <trkpt lat="35.95835" lon="-83.74904">
        <ele>267.489937</ele>
        <time>2024-05-11T07:57:31.000Z</time>
      </trkpt>
      <trkpt lat="35.958741" lon="-83.747502">
        <ele>267.453908</ele>
        <time>2024-05-11T07:57:46.000Z</time>
      </trkpt>
      <trkpt lat="35.958831" lon="-83.746994">
        <ele>267.615882</ele>
        <time>2024-05-11T07:57:51.000Z</time>
      </trkpt>
      <trkpt lat="35.95914" lon="-83.745119">
        <ele>269.991856</ele>
        <time>2024-05-11T07:58:08.000Z</time>
      </trkpt>
      <trkpt lat="35.959187" lon="-83.744713">
        <ele>270.778665</ele>
        <time>2024-05-11T07:58:12.000Z</time>
      </trkpt>
      <trkpt lat="35.959135" lon="-83.744414">
        <ele>271.341166</ele>
        <time>2024-05-11T07:58:15.000Z</time>
      </trkpt>
      <trkpt lat="35.958796" lon="-83.743297">
        <ele>272.528807</ele>
        <time>2024-05-11T07:58:26.000Z</time>
      </trkpt>
      <trkpt lat="35.958728" lon="-83.743031">
        <ele>272.689004</ele>
        <time>2024-05-11T07:58:29.000Z</time>
      </trkpt>
      <trkpt lat="35.958707" lon="-83.742612">
        <ele>272.919711</ele>
        <time>2024-05-11T07:58:33.000Z</time>
      </trkpt>
      <trkpt lat="35.958781" lon="-83.741657">
        <ele>272.769372</ele>
        <time>2024-05-11T07:58:42.000Z</time>
      </trkpt>
      <trkpt lat="35.958808" lon="-83.740978">
        <ele>271.144733</ele>
        <time>2024-05-11T07:58:48.000Z</time>
      </trkpt>
      <trkpt lat="35.958976" lon="-83.739564">
        <ele>267.705791</ele>
        <time>2024-05-11T07:59:01.000Z</time>
      </trkpt>
      <trkpt lat="35.959058" lon="-83.739237">
        <ele>266.678574</ele>
        <time>2024-05-11T07:59:04.000Z</time>
      </trkpt>
      <trkpt lat="35.959129" lon="-83.738967">
        <ele>265.801843</ele>
        <time>2024-05-11T07:59:07.000Z</time>
      </trkpt>
      <trkpt lat="35.959625" lon="-83.73784">
        <ele>261.929503</ele>
        <time>2024-05-11T07:59:19.000Z</time>
      </trkpt>
      <trkpt lat="35.959697" lon="-83.737773">
        <ele>261.581365</ele>
        <time>2024-05-11T07:59:20.000Z</time>
      </trkpt>
      <trkpt lat="35.959801" lon="-83.737723">
        <ele>261.300909</ele>
        <time>2024-05-11T07:59:21.000Z</time>
      </trkpt>
      <trkpt lat="35.96086" lon="-83.737369">
        <ele>259.547948</ele>
        <time>2024-05-11T07:59:33.000Z</time>
      </trkpt>
      <trkpt lat="35.962284" lon="-83.737126">
        <ele>258.34627</ele>
        <time>2024-05-11T07:59:49.000Z</time>
      </trkpt>
      <trkpt lat="35.963044" lon="-83.737058">
        <ele>258.204581</ele>
        <time>2024-05-11T07:59:57.000Z</time>
      </trkpt>
      <trkpt lat="35.964308" lon="-83.736762">
        <ele>257.882202</ele>
        <time>2024-05-11T08:00:11.000Z</time>
      </trkpt>
      <trkpt lat="35.964715" lon="-83.736568">
        <ele>257.766427</ele>
        <time>2024-05-11T08:00:16.000Z</time>
      </trkpt>
      <trkpt lat="35.964907" lon="-83.736458">
        <ele>257.71264</ele>
        <time>2024-05-11T08:00:18.000Z</time>
      </trkpt>
      <trkpt lat="35.966049" lon="-83.73562">
        <ele>258.038987</ele>
        <time>2024-05-11T08:00:33.000Z</time>
      </trkpt>
      <trkpt lat="35.966132" lon="-83.735545">
        <ele>258.066318</ele>
        <time>2024-05-11T08:00:34.000Z</time>
      </trkpt>
      <trkpt lat="35.966768" lon="-83.735046">
        <ele>258.423343</ele>
        <time>2024-05-11T08:00:42.000Z</time>
      </trkpt>
      <trkpt lat="35.967333" lon="-83.734827">
        <ele>258.901402</ele>
        <time>2024-05-11T08:00:49.000Z</time>
      </trkpt>
      <trkpt lat="35.967977" lon="-83.734417">
        <ele>259.498887</ele>
        <time>2024-05-11T08:00:57.000Z</time>
      </trkpt>
      <trkpt lat="35.968252" lon="-83.734195">
        <ele>259.667452</ele>
        <time>2024-05-11T08:01:01.000Z</time>
      </trkpt>
      <trkpt lat="35.969094" lon="-83.733452">
        <ele>259.708238</ele>
        <time>2024-05-11T08:01:13.000Z</time>
      </trkpt>
      <trkpt lat="35.969684" lon="-83.732791">
        <ele>259.728678</ele>
        <time>2024-05-11T08:01:22.000Z</time>
      </trkpt>
      <trkpt lat="35.970189" lon="-83.732141">
        <ele>259.70393</ele>
        <time>2024-05-11T08:01:30.000Z</time>
      </trkpt>
      <trkpt lat="35.970526" lon="-83.731899">
        <ele>259.690458</ele>
        <time>2024-05-11T08:01:34.000Z</time>
      </trkpt>
      <trkpt lat="35.971525" lon="-83.732567">
        <ele>260.444499</ele>
        <time>2024-05-11T08:01:47.000Z</time>
      </trkpt>
      <trkpt lat="35.9719" lon="-83.732787">
        <ele>260.975181</ele>
        <time>2024-05-11T08:01:52.000Z</time>
      </trkpt>
      <trkpt lat="35.972172" lon="-83.732849">
        <ele>261.311959</ele>
        <time>2024-05-11T08:01:55.000Z</time>
      </trkpt>
      <trkpt lat="35.972404" lon="-83.732888">
        <ele>261.609064</ele>
        <time>2024-05-11T08:01:58.000Z</time>
      </trkpt>
      <trkpt lat="35.974119" lon="-83.733096">
        <ele>265.030598</ele>
        <time>2024-05-11T08:02:17.000Z</time>
      </trkpt>
      <trkpt lat="35.975343" lon="-83.733039">
        <ele>268.184217</ele>
        <time>2024-05-11T08:02:31.000Z</time>
      </trkpt>
      <trkpt lat="35.975677" lon="-83.733108">
        <ele>269.116953</ele>
        <time>2024-05-11T08:02:35.000Z</time>
      </trkpt>
      <trkpt lat="35.977102" lon="-83.73361">
        <ele>272.900047</ele>
        <time>2024-05-11T08:02:51.000Z</time>
      </trkpt>
      <trkpt lat="35.977863" lon="-83.733756">
        <ele>274.746382</ele>
        <time>2024-05-11T08:03:00.000Z</time>
      </trkpt>
      <trkpt lat="35.979586" lon="-83.73458">
        <ele>277.75871</ele>
        <time>2024-05-11T08:03:21.000Z</time>
      </trkpt>
      <trkpt lat="35.981659" lon="-83.735756">
        <ele>283.252588</ele>
        <time>2024-05-11T08:03:46.000Z</time>
      </trkpt>
      <trkpt lat="35.980238" lon="-83.738297">
        <ele>290.402681</ele>
        <time>2024-05-11T08:04:14.000Z</time>
      </trkpt>
      <trkpt lat="35.979577" lon="-83.739344">
        <ele>293.143672</ele>
        <time>2024-05-11T08:04:26.000Z</time>
      </trkpt>
      <trkpt lat="35.979385" lon="-83.739985">
        <ele>294.303146</ele>
        <time>2024-05-11T08:04:32.000Z</time>
      </trkpt>
      <trkpt lat="35.979155" lon="-83.740561">
        <ele>295.389817</ele>
        <time>2024-05-11T08:04:38.000Z</time>
      </trkpt>
      <trkpt lat="35.978438" lon="-83.742373">
        <ele>298.634015</ele>
        <time>2024-05-11T08:04:56.000Z</time>
      </trkpt>
      <trkpt lat="35.978327" lon="-83.742637">
        <ele>299.134163</ele>
        <time>2024-05-11T08:04:59.000Z</time>
      </trkpt>
      <trkpt lat="35.977756" lon="-83.744154">
        <ele>302.362085</ele>
        <time>2024-05-11T08:05:14.000Z</time>
      </trkpt>
      <trkpt lat="35.977499" lon="-83.745144">
        <ele>304.194082</ele>
        <time>2024-05-11T08:05:23.000Z</time>
      </trkpt>
      <trkpt lat="35.977447" lon="-83.745319">
        <ele>304.280642</ele>
        <time>2024-05-11T08:05:25.000Z</time>
      </trkpt>
      <trkpt lat="35.977351" lon="-83.746435">
        <ele>304.856188</ele>
        <time>2024-05-11T08:05:35.000Z</time>
      </trkpt>
      <trkpt lat="35.977307" lon="-83.748189">
        <ele>303.728585</ele>
        <time>2024-05-11T08:05:51.000Z</time>
      </trkpt>
      <trkpt lat="35.976972" lon="-83.749164">
        <ele>302.14842</ele>
        <time>2024-05-11T08:06:01.000Z</time>
      </trkpt>
      <trkpt lat="35.976141" lon="-83.750909">
        <ele>298.439911</ele>
        <time>2024-05-11T08:06:19.000Z</time>
      </trkpt>
      <trkpt lat="35.976042" lon="-83.751355">
        <ele>297.42507</ele>
        <time>2024-05-11T08:06:23.000Z</time>
      </trkpt>
      <trkpt lat="35.976035" lon="-83.75181">
        <ele>296.066213</ele>
        <time>2024-05-11T08:06:27.000Z</time>
      </trkpt>
      <trkpt lat="35.976123" lon="-83.752143">
        <ele>294.968006</ele>
        <time>2024-05-11T08:06:30.000Z</time>
      </trkpt>
      <trkpt lat="35.976105" lon="-83.752284">
        <ele>294.559597</ele>
        <time>2024-05-11T08:06:31.000Z</time>
      </trkpt>
      <trkpt lat="35.97605" lon="-83.75245">
        <ele>294.005682</ele>
        <time>2024-05-11T08:06:33.000Z</time>
      </trkpt>
      <trkpt lat="35.975873" lon="-83.752614">
        <ele>293.242121</ele>
        <time>2024-05-11T08:06:35.000Z</time>
      </trkpt>
      <trkpt lat="35.975556" lon="-83.752631">
        <ele>292.031812</ele>
        <time>2024-05-11T08:06:39.000Z</time>
      </trkpt>
      <trkpt lat="35.975089" lon="-83.752638">
        <ele>290.267754</ele>
        <time>2024-05-11T08:06:44.000Z</time>
      </trkpt>
      <trkpt lat="35.974578" lon="-83.752771">
        <ele>288.244787</ele>
        <time>2024-05-11T08:06:50.000Z</time>
      </trkpt>
      <trkpt lat="35.974244" lon="-83.753018">
        <ele>286.716111</ele>
        <time>2024-05-11T08:06:54.000Z</time>
      </trkpt>
      <trkpt lat="35.973895" lon="-83.753443">
        <ele>284.829846</ele>
        <time>2024-05-11T08:06:59.000Z</time>
      </trkpt>
      <trkpt lat="35.973668" lon="-83.753745">
        <ele>283.808125</ele>
        <time>2024-05-11T08:07:03.000Z</time>
      </trkpt>
      <trkpt lat="35.973338" lon="-83.754062">
        <ele>283.078208</ele>
        <time>2024-05-11T08:07:08.000Z</time>
      </trkpt>
      <trkpt lat="35.972999" lon="-83.754479">
        <ele>282.216482</ele>
        <time>2024-05-11T08:07:13.000Z</time>
      </trkpt>
      <trkpt lat="35.972679" lon="-83.755027">
        <ele>281.230217</ele>
        <time>2024-05-11T08:07:19.000Z</time>
      </trkpt>
      <trkpt lat="35.969839" lon="-83.75713">
        <ele>277.063259</ele>
        <time>2024-05-11T08:07:56.000Z</time>
      </trkpt>
      <trkpt lat="35.969757" lon="-83.757196">
        <ele>276.958836</ele>
        <time>2024-05-11T08:07:57.000Z</time>
      </trkpt>
      <trkpt lat="35.968788" lon="-83.757904">
        <ele>275.676777</ele>
        <time>2024-05-11T08:08:10.000Z</time>
      </trkpt>
      <trkpt lat="35.968389" lon="-83.758053">
        <ele>275.208403</ele>
        <time>2024-05-11T08:08:15.000Z</time>
      </trkpt>
      <trkpt lat="35.968337" lon="-83.758131">
        <ele>275.125042</ele>
        <time>2024-05-11T08:08:16.000Z</time>
      </trkpt>
      <trkpt lat="35.965863" lon="-83.761563">
        <ele>270.201356</ele>
        <time>2024-05-11T08:08:57.000Z</time>
      </trkpt>
      <trkpt lat="35.965324" lon="-83.762322">
        <ele>268.623206</ele>
        <time>2024-05-11T08:09:06.000Z</time>
      </trkpt>
      <trkpt lat="35.965142" lon="-83.762652">
        <ele>267.819748</ele>
        <time>2024-05-11T08:09:10.000Z</time>
      </trkpt>
      <trkpt lat="35.96404" lon="-83.763395">
        <ele>264.827231</ele>
        <time>2024-05-11T08:09:24.000Z</time>
      </trkpt>
      <trkpt lat="35.963814" lon="-83.76362">
        <ele>264.266986</ele>
        <time>2024-05-11T08:09:27.000Z</time>
      </trkpt>
      <trkpt lat="35.963711" lon="-83.763905">
        <ele>263.797122</ele>
        <time>2024-05-11T08:09:30.000Z</time>
      </trkpt>
      <trkpt lat="35.963743" lon="-83.764823">
        <ele>262.326368</ele>
        <time>2024-05-11T08:09:38.000Z</time>
      </trkpt>
      <trkpt lat="35.963848" lon="-83.766017">
        <ele>260.932174</ele>
        <time>2024-05-11T08:09:49.000Z</time>
      </trkpt>
      <trkpt lat="35.963824" lon="-83.766634">
        <ele>260.359094</ele>
        <time>2024-05-11T08:09:55.000Z</time>
      </trkpt>
      <trkpt lat="35.963532" lon="-83.767646">
        <ele>259.391283</ele>
        <time>2024-05-11T08:10:05.000Z</time>
      </trkpt>
      <trkpt lat="35.96337" lon="-83.769121">
        <ele>258.121947</ele>
        <time>2024-05-11T08:10:18.000Z</time>
      </trkpt>
      <trkpt lat="35.963178" lon="-83.770448">
        <ele>256.93631</ele>
        <time>2024-05-11T08:10:30.000Z</time>
      </trkpt>
      <trkpt lat="35.962741" lon="-83.771484">
        <ele>255.889546</ele>
        <time>2024-05-11T08:10:41.000Z</time>
      </trkpt>
      <trkpt lat="35.962062" lon="-83.772304">
        <ele>255.082985</ele>
        <time>2024-05-11T08:10:52.000Z</time>
      </trkpt>
      <trkpt lat="35.961418" lon="-83.772857">
        <ele>254.449846</ele>
        <time>2024-05-11T08:11:01.000Z</time>
      </trkpt>
      <trkpt lat="35.958961" lon="-83.774786">
        <ele>255.728829</ele>
        <time>2024-05-11T08:11:33.000Z</time>
      </trkpt>
      <trkpt lat="35.958543" lon="-83.775257">
        <ele>256.624832</ele>
        <time>2024-05-11T08:11:39.000Z</time>
      </trkpt>
      <trkpt lat="35.95832" lon="-83.775863">
        <ele>258.096709</ele>
        <time>2024-05-11T08:11:45.000Z</time>
      </trkpt>
      <trkpt lat="35.958077" lon="-83.77626">
        <ele>260.115348</ele>
        <time>2024-05-11T08:11:49.000Z</time>
      </trkpt>
      <trkpt lat="35.957949" lon="-83.776648">
        <ele>261.924969</ele>
        <time>2024-05-11T08:11:53.000Z</time>
      </trkpt>
      <trkpt lat="35.957952" lon="-83.777165">
        <ele>264.083287</ele>
        <time>2024-05-11T08:11:58.000Z</time>
      </trkpt>
      <trkpt lat="35.958391" lon="-83.778619">
        <ele>271.24614</ele>
        <time>2024-05-11T08:12:12.000Z</time>
      </trkpt>
      <trkpt lat="35.958492" lon="-83.779101">
        <ele>273.695041</ele>
        <time>2024-05-11T08:12:16.000Z</time>
      </trkpt>
      <trkpt lat="35.958479" lon="-83.779292">
        <ele>274.637487</ele>
        <time>2024-05-11T08:12:18.000Z</time>
      </trkpt>
      <trkpt lat="35.95972" lon="-83.780976">
        <ele>284.125468</ele>
        <time>2024-05-11T08:12:39.000Z</time>
      </trkpt>
      <trkpt lat="35.960281" lon="-83.781875">
        <ele>287.940113</ele>
        <time>2024-05-11T08:12:49.000Z</time>
      </trkpt>
      <trkpt lat="35.961452" lon="-83.783362">
        <ele>293.46557</ele>
        <time>2024-05-11T08:13:08.000Z</time>
      </trkpt>
      <trkpt lat="35.962714" lon="-83.784798">
        <ele>297.401967</ele>
        <time>2024-05-11T08:13:27.000Z</time>
      </trkpt>
      <trkpt lat="35.963326" lon="-83.785468">
        <ele>298.282046</ele>
        <time>2024-05-11T08:13:36.000Z</time>
      </trkpt>
      <trkpt lat="35.963824" lon="-83.786214">
        <ele>298.940079</ele>
        <time>2024-05-11T08:13:45.000Z</time>
      </trkpt>
      <trkpt lat="35.964073" lon="-83.78689">
        <ele>298.456054</ele>
        <time>2024-05-11T08:13:52.000Z</time>
      </trkpt>
      <trkpt lat="35.964155" lon="-83.787201">
        <ele>298.240298</ele>
        <time>2024-05-11T08:13:55.000Z</time>
      </trkpt>
      <trkpt lat="35.964202" lon="-83.788092">
        <ele>297.655622</ele>
        <time>2024-05-11T08:14:03.000Z</time>
      </trkpt>
      <trkpt lat="35.963999" lon="-83.788676">
        <ele>297.222949</ele>
        <time>2024-05-11T08:14:09.000Z</time>
      </trkpt>
      <trkpt lat="35.963689" lon="-83.789109">
        <ele>296.829064</ele>
        <time>2024-05-11T08:14:14.000Z</time>
      </trkpt>
      <trkpt lat="35.963671" lon="-83.789138">
        <ele>296.79187</ele>
        <time>2024-05-11T08:14:14.000Z</time>
      </trkpt>
      <trkpt lat="35.963666" lon="-83.789319">
        <ele>296.668249</ele>
        <time>2024-05-11T08:14:16.000Z</time>
      </trkpt>
      <trkpt lat="35.963717" lon="-83.789485">
        <ele>296.549264</ele>
        <time>2024-05-11T08:14:18.000Z</time>
      </trkpt>
      <trkpt lat="35.96425" lon="-83.79042">
        <ele>295.457334</ele>
        <time>2024-05-11T08:14:28.000Z</time>
      </trkpt>
      <trkpt lat="35.964598" lon="-83.791432">
        <ele>293.857299</ele>
        <time>2024-05-11T08:14:38.000Z</time>
      </trkpt>
      <trkpt lat="35.964808" lon="-83.792645">
        <ele>291.106632</ele>
        <time>2024-05-11T08:14:49.000Z</time>
      </trkpt>
      <trkpt lat="35.964851" lon="-83.793661">
        <ele>287.701694</ele>
        <time>2024-05-11T08:14:58.000Z</time>
      </trkpt>
      <trkpt lat="35.965321" lon="-83.795971">
        <ele>278.905337</ele>
        <time>2024-05-11T08:15:19.000Z</time>
      </trkpt>
      <trkpt lat="35.965356" lon="-83.796359">
        <ele>277.402957</ele>
        <time>2024-05-11T08:15:23.000Z</time>
      </trkpt>
      <trkpt lat="35.965297" lon="-83.797222">
        <ele>274.618059</ele>
        <time>2024-05-11T08:15:31.000Z</time>
      </trkpt>
      <trkpt lat="35.965131" lon="-83.797602">
        <ele>273.275233</ele>
        <time>2024-05-11T08:15:35.000Z</time>
      </trkpt>
      <trkpt lat="35.964829" lon="-83.798081">
        <ele>271.397912</ele>
        <time>2024-05-11T08:15:40.000Z</time>
      </trkpt>
      <trkpt lat="35.964652" lon="-83.798481">
        <ele>269.991732</ele>
        <time>2024-05-11T08:15:44.000Z</time>
      </trkpt>
      <trkpt lat="35.964529" lon="-83.798673">
        <ele>269.432089</ele>
        <time>2024-05-11T08:15:46.000Z</time>
      </trkpt>
      <trkpt lat="35.963893" lon="-83.799765">
        <ele>266.362388</ele>
        <time>2024-05-11T08:15:58.000Z</time>
      </trkpt>
      <trkpt lat="35.963857" lon="-83.799852">
        <ele>266.144008</ele>
        <time>2024-05-11T08:15:59.000Z</time>
      </trkpt>
      <trkpt lat="35.96358" lon="-83.800334">
        <ele>264.795766</ele>
        <time>2024-05-11T08:16:04.000Z</time>
      </trkpt>
      <trkpt lat="35.963272" lon="-83.800745">
        <ele>263.644264</ele>
        <time>2024-05-11T08:16:09.000Z</time>
      </trkpt>
      <trkpt lat="35.962926" lon="-83.801188">
        <ele>262.421287</ele>
        <time>2024-05-11T08:16:15.000Z</time>
      </trkpt>
      <trkpt lat="35.962473" lon="-83.802066">
        <ele>260.344309</ele>
        <time>2024-05-11T08:16:24.000Z</time>
      </trkpt>
      <trkpt lat="35.962237" lon="-83.802821">
        <ele>259.403851</ele>
        <time>2024-05-11T08:16:31.000Z</time>
      </trkpt>
      <trkpt lat="35.962167" lon="-83.803182">
        <ele>258.983628</ele>
        <time>2024-05-11T08:16:34.000Z</time>
      </trkpt>
      <trkpt lat="35.962056" lon="-83.805381">
        <ele>258.40255</ele>
        <time>2024-05-11T08:16:54.000Z</time>
      </trkpt>
      <trkpt lat="35.961997" lon="-83.806171">
        <ele>258.789792</ele>
        <time>2024-05-11T08:17:01.000Z</time>
      </trkpt>
      <trkpt lat="35.961995" lon="-83.806231">
        <ele>258.820361</ele>
        <time>2024-05-11T08:17:02.000Z</time>
      </trkpt>
      <trkpt lat="35.961931" lon="-83.807391">
        <ele>261.756073</ele>
        <time>2024-05-11T08:17:12.000Z</time>
      </trkpt>
      <trkpt lat="35.961668" lon="-83.809227">
        <ele>266.219205</ele>
        <time>2024-05-11T08:17:29.000Z</time>
      </trkpt>
      <trkpt lat="35.961127" lon="-83.810505">
        <ele>268.447311</ele>
        <time>2024-05-11T08:17:42.000Z</time>
      </trkpt>
      <trkpt lat="35.960736" lon="-83.811523">
        <ele>267.747904</ele>
        <time>2024-05-11T08:17:52.000Z</time>
      </trkpt>
      <trkpt lat="35.96048" lon="-83.811974">
        <ele>267.23366</ele>
        <time>2024-05-11T08:17:57.000Z</time>
      </trkpt>
      <trkpt lat="35.959686" lon="-83.813002">
        <ele>265.957257</ele>
        <time>2024-05-11T08:18:10.000Z</time>
      </trkpt>
      <trkpt lat="35.958545" lon="-83.815561">
        <ele>263.784954</ele>
        <time>2024-05-11T08:18:36.000Z</time>
      </trkpt>
      <trkpt lat="35.957878" lon="-83.8177">
        <ele>262.313682</ele>
        <time>2024-05-11T08:18:57.000Z</time>
      </trkpt>
      <trkpt lat="35.957855" lon="-83.817731">
        <ele>262.292962</ele>
        <time>2024-05-11T08:18:57.000Z</time>
      </trkpt>
      <trkpt lat="35.957855" lon="-83.818115">
        <ele>262.032685</ele>
        <time>2024-05-11T08:19:00.000Z</time>
      </trkpt>
      <trkpt lat="35.957887" lon="-83.818222">
        <ele>261.957139</ele>
        <time>2024-05-11T08:19:01.000Z</time>
      </trkpt>
      <trkpt lat="35.957958" lon="-83.818395">
        <ele>261.821896</ele>
        <time>2024-05-11T08:19:03.000Z</time>
      </trkpt>
      <trkpt lat="35.957992" lon="-83.818481">
        <ele>261.74504</ele>
        <time>2024-05-11T08:19:04.000Z</time>
      </trkpt>
      <trkpt lat="35.958697" lon="-83.819444">
        <ele>260.712829</ele>
        <time>2024-05-11T08:19:16.000Z</time>
      </trkpt>
      <trkpt lat="35.959157" lon="-83.820153">
        <ele>260.014076</ele>
        <time>2024-05-11T08:19:24.000Z</time>
      </trkpt>
      <trkpt lat="35.960194" lon="-83.822142">
        <ele>259.168402</ele>
        <time>2024-05-11T08:19:45.000Z</time>
      </trkpt>
      <trkpt lat="35.960512" lon="-83.822669">
        <ele>259.334008</ele>
        <time>2024-05-11T08:19:51.000Z</time>
      </trkpt>
      <trkpt lat="35.961002" lon="-83.823374">
        <ele>259.572862</ele>
        <time>2024-05-11T08:19:59.000Z</time>
      </trkpt>
      <trkpt lat="35.961412" lon="-83.823883">
        <ele>259.772749</ele>
        <time>2024-05-11T08:20:05.000Z</time>
      </trkpt>
      <trkpt lat="35.961552" lon="-83.824049">
        <ele>259.844773</ele>
        <time>2024-05-11T08:20:07.000Z</time>
      </trkpt>
      <trkpt lat="35.961917" lon="-83.824452">
        <ele>260.029862</ele>
        <time>2024-05-11T08:20:12.000Z</time>
      </trkpt>
      <trkpt lat="35.962413" lon="-83.824907">
        <ele>260.266828</ele>
        <time>2024-05-11T08:20:19.000Z</time>
      </trkpt>
      <trkpt lat="35.962632" lon="-83.825096">
        <ele>260.355683</ele>
        <time>2024-05-11T08:20:22.000Z</time>
      </trkpt>
      <trkpt lat="35.963332" lon="-83.82561">
        <ele>260.365733</ele>
        <time>2024-05-11T08:20:31.000Z</time>
      </trkpt>
      <trkpt lat="35.964074" lon="-83.826097">
        <ele>260.376402</ele>
        <time>2024-05-11T08:20:40.000Z</time>
      </trkpt>
      <trkpt lat="35.964983" lon="-83.826577">
        <ele>260.441031</ele>
        <time>2024-05-11T08:20:51.000Z</time>
      </trkpt>
      <trkpt lat="35.965552" lon="-83.826837">
        <ele>260.48474</ele>
        <time>2024-05-11T08:20:58.000Z</time>
      </trkpt>
      <trkpt lat="35.966324" lon="-83.827109">
        <ele>260.792701</ele>
        <time>2024-05-11T08:21:07.000Z</time>
      </trkpt>
      <trkpt lat="35.966976" lon="-83.827297">
        <ele>261.18802</ele>
        <time>2024-05-11T08:21:14.000Z</time>
      </trkpt>
      <trkpt lat="35.967495" lon="-83.827414">
        <ele>261.489554</ele>
        <time>2024-05-11T08:21:20.000Z</time>
      </trkpt>
      <trkpt lat="35.967618" lon="-83.82778">
        <ele>262.05547</ele>
        <time>2024-05-11T08:21:24.000Z</time>
      </trkpt>
      <trkpt lat="35.967793" lon="-83.828224">
        <ele>263.077798</ele>
        <time>2024-05-11T08:21:28.000Z</time>
      </trkpt>
      <trkpt lat="35.968219" lon="-83.82899">
        <ele>264.995748</ele>
        <time>2024-05-11T08:21:36.000Z</time>
      </trkpt>
      <trkpt lat="35.968553" lon="-83.829493">
        <ele>266.325952</ele>
        <time>2024-05-11T08:21:42.000Z</time>
      </trkpt>
      <trkpt lat="35.968955" lon="-83.830426">
        <ele>267.929852</ele>
        <time>2024-05-11T08:21:52.000Z</time>
      </trkpt>
      <trkpt lat="35.969168" lon="-83.831168">
        <ele>269.137637</ele>
        <time>2024-05-11T08:21:59.000Z</time>
      </trkpt>
      <trkpt lat="35.969174" lon="-83.832122">
        <ele>269.294555</ele>
        <time>2024-05-11T08:22:08.000Z</time>
      </trkpt>
      <trkpt lat="35.969278" lon="-83.832502">
        <ele>269.116751</ele>
        <time>2024-05-11T08:22:12.000Z</time>
      </trkpt>
      <trkpt lat="35.96966" lon="-83.833146">
        <ele>268.76498</ele>
        <time>2024-05-11T08:22:19.000Z</time>
      </trkpt>
      <trkpt lat="35.970007" lon="-83.833616">
        <ele>268.919884</ele>
        <time>2024-05-11T08:22:25.000Z</time>
      </trkpt>
      <trkpt lat="35.970357" lon="-83.83417">
        <ele>269.733172</ele>
        <time>2024-05-11T08:22:31.000Z</time>
      </trkpt>
      <trkpt lat="35.970419" lon="-83.834355">
        <ele>269.960901</ele>
        <time>2024-05-11T08:22:33.000Z</time>
      </trkpt>
      <trkpt lat="35.970428" lon="-83.834674">
        <ele>270.335165</ele>
        <time>2024-05-11T08:22:36.000Z</time>
      </trkpt>
      <trkpt lat="35.970309" lon="-83.836018">
        <ele>271.92848</ele>
        <time>2024-05-11T08:22:48.000Z</time>
      </trkpt>
      <trkpt lat="35.970374" lon="-83.836399">
        <ele>272.406871</ele>
        <time>2024-05-11T08:22:52.000Z</time>
      </trkpt>
      <trkpt lat="35.970442" lon="-83.836557">
        <ele>272.623671</ele>
        <time>2024-05-11T08:22:54.000Z</time>
      </trkpt>
      <trkpt lat="35.970531" lon="-83.836682">
        <ele>272.820981</ele>
        <time>2024-05-11T08:22:55.000Z</time>
      </trkpt>
      <trkpt lat="35.97066" lon="-83.83676">
        <ele>273.041344</ele>
        <time>2024-05-11T08:22:57.000Z</time>
      </trkpt>
      <trkpt lat="35.971164" lon="-83.836859">
        <ele>273.786994</ele>
        <time>2024-05-11T08:23:03.000Z</time>
      </trkpt>
      <trkpt lat="35.971585" lon="-83.836981">
        <ele>273.216036</ele>
        <time>2024-05-11T08:23:08.000Z</time>
      </trkpt>
      <trkpt lat="35.972655" lon="-83.837989">
        <ele>270.968988</ele>
        <time>2024-05-11T08:23:23.000Z</time>
      </trkpt>
      <trkpt lat="35.97293" lon="-83.838404">
        <ele>270.79965</ele>
        <time>2024-05-11T08:23:28.000Z</time>
      </trkpt>
      <trkpt lat="35.973036" lon="-83.838616">
        <ele>270.763595</ele>
        <time>2024-05-11T08:23:30.000Z</time>
      </trkpt>
      <trkpt lat="35.973898" lon="-83.842426">
        <ele>272.510591</ele>
        <time>2024-05-11T08:24:06.000Z</time>
      </trkpt>
      <trkpt lat="35.974145" lon="-83.842865">
        <ele>273.522814</ele>
        <time>2024-05-11T08:24:11.000Z</time>
      </trkpt>
      <trkpt lat="35.974362" lon="-83.843049">
        <ele>274.123991</ele>
        <time>2024-05-11T08:24:14.000Z</time>
      </trkpt>
      <trkpt lat="35.974776" lon="-83.843325">
        <ele>275.272772</ele>
        <time>2024-05-11T08:24:19.000Z</time>
      </trkpt>
      <trkpt lat="35.975043" lon="-83.843395">
        <ele>275.916926</ele>
        <time>2024-05-11T08:24:22.000Z</time>
      </trkpt>
      <trkpt lat="35.975654" lon="-83.843535">
        <ele>276.609376</ele>
        <time>2024-05-11T08:24:29.000Z</time>
      </trkpt>
      <trkpt lat="35.975964" lon="-83.843696">
        <ele>276.829611</ele>
        <time>2024-05-11T08:24:33.000Z</time>
      </trkpt>
      <trkpt lat="35.976731" lon="-83.844163">
        <ele>277.387073</ele>
        <time>2024-05-11T08:24:43.000Z</time>
      </trkpt>
      <trkpt lat="35.977395" lon="-83.844524">
        <ele>276.999396</ele>
        <time>2024-05-11T08:24:51.000Z</time>
      </trkpt>
      <trkpt lat="35.977738" lon="-83.844614">
        <ele>276.695293</ele>
        <time>2024-05-11T08:24:55.000Z</time>
      </trkpt>
      <trkpt lat="35.978546" lon="-83.845092">
        <ele>275.880475</ele>
        <time>2024-05-11T08:25:05.000Z</time>
      </trkpt>
      <trkpt lat="35.979437" lon="-83.845576">
        <ele>275.148415</ele>
        <time>2024-05-11T08:25:16.000Z</time>
      </trkpt>
      <trkpt lat="35.979605" lon="-83.845688">
        <ele>274.99807</ele>
        <time>2024-05-11T08:25:18.000Z</time>
      </trkpt>
      <trkpt lat="35.979826" lon="-83.845831">
        <ele>274.8029</ele>
        <time>2024-05-11T08:25:21.000Z</time>
      </trkpt>
      <trkpt lat="35.980011" lon="-83.846035">
        <ele>274.625563</ele>
        <time>2024-05-11T08:25:24.000Z</time>
      </trkpt>
      <trkpt lat="35.980083" lon="-83.846161">
        <ele>274.521288</ele>
        <time>2024-05-11T08:25:25.000Z</time>
      </trkpt>
      <trkpt lat="35.980152" lon="-83.846434">
        <ele>274.013128</ele>
        <time>2024-05-11T08:25:28.000Z</time>
      </trkpt>
      <trkpt lat="35.980271" lon="-83.847439">
        <ele>272.093257</ele>
        <time>2024-05-11T08:25:37.000Z</time>
      </trkpt>
      <trkpt lat="35.98026" lon="-83.848074">
        <ele>270.88705</ele>
        <time>2024-05-11T08:25:43.000Z</time>
      </trkpt>
      <trkpt lat="35.980141" lon="-83.849364">
        <ele>267.743639</ele>
        <time>2024-05-11T08:25:55.000Z</time>
      </trkpt>
      <trkpt lat="35.980107" lon="-83.8497">
        <ele>266.851301</ele>
        <time>2024-05-11T08:25:58.000Z</time>
      </trkpt>
      <trkpt lat="35.979994" lon="-83.850192">
        <ele>265.543064</ele>
        <time>2024-05-11T08:26:03.000Z</time>
      </trkpt>
      <trkpt lat="35.979751" lon="-83.851413">
        <ele>262.323119</ele>
        <time>2024-05-11T08:26:14.000Z</time>
      </trkpt>
      <trkpt lat="35.97973" lon="-83.851853">
        <ele>261.221027</ele>
        <time>2024-05-11T08:26:18.000Z</time>
      </trkpt>
      <trkpt lat="35.979758" lon="-83.852094">
        <ele>260.585996</ele>
        <time>2024-05-11T08:26:20.000Z</time>
      </trkpt>
      <trkpt lat="35.979815" lon="-83.852335">
        <ele>259.958027</ele>
        <time>2024-05-11T08:26:22.000Z</time>
      </trkpt>
      <trkpt lat="35.979991" lon="-83.852846">
        <ele>258.732207</ele>
        <time>2024-05-11T08:26:27.000Z</time>
      </trkpt>
      <trkpt lat="35.980303" lon="-83.853601">
        <ele>257.653732</ele>
        <time>2024-05-11T08:26:35.000Z</time>
      </trkpt>
      <trkpt lat="35.980393" lon="-83.853758">
        <ele>257.390975</ele>
        <time>2024-05-11T08:26:37.000Z</time>
      </trkpt>
      <trkpt lat="35.980687" lon="-83.854061">
        <ele>256.765388</ele>
        <time>2024-05-11T08:26:41.000Z</time>
      </trkpt>
      <trkpt lat="35.981153" lon="-83.854434">
        <ele>256.1614</ele>
        <time>2024-05-11T08:26:47.000Z</time>
      </trkpt>
      <trkpt lat="35.981687" lon="-83.854453">
        <ele>256.760718</ele>
        <time>2024-05-11T08:26:53.000Z</time>
      </trkpt>
      <trkpt lat="35.982653" lon="-83.854441">
        <ele>257.802637</ele>
        <time>2024-05-11T08:27:04.000Z</time>
      </trkpt>
      <trkpt lat="35.98316" lon="-83.854423">
        <ele>258.007018</ele>
        <time>2024-05-11T08:27:10.000Z</time>
      </trkpt>
      <trkpt lat="35.983498" lon="-83.854463">
        <ele>257.996837</ele>
        <time>2024-05-11T08:27:14.000Z</time>
      </trkpt>
      <trkpt lat="35.983783" lon="-83.854611">
        <ele>257.987074</ele>
        <time>2024-05-11T08:27:17.000Z</time>
      </trkpt>
      <trkpt lat="35.983946" lon="-83.854752">
        <ele>257.981393</ele>
        <time>2024-05-11T08:27:19.000Z</time>
      </trkpt>
      <trkpt lat="35.984136" lon="-83.854969">
        <ele>257.973672</ele>
        <time>2024-05-11T08:27:22.000Z</time>
      </trkpt>
      <trkpt lat="35.984362" lon="-83.855366">
        <ele>257.96297</ele>
        <time>2024-05-11T08:27:26.000Z</time>
      </trkpt>
      <trkpt lat="35.984406" lon="-83.855547">
        <ele>257.967606</ele>
        <time>2024-05-11T08:27:28.000Z</time>
      </trkpt>
      <trkpt lat="35.984476" lon="-83.8559">
        <ele>257.977004</ele>
        <time>2024-05-11T08:27:31.000Z</time>
      </trkpt>
      <trkpt lat="35.984735" lon="-83.858866">
        <ele>258.723725</ele>
        <time>2024-05-11T08:27:58.000Z</time>
      </trkpt>
      <trkpt lat="35.984758" lon="-83.859306">
        <ele>258.957331</ele>
        <time>2024-05-11T08:28:02.000Z</time>
      </trkpt>
      <trkpt lat="35.984745" lon="-83.859613">
        <ele>259.118813</ele>
        <time>2024-05-11T08:28:05.000Z</time>
      </trkpt>
      <trkpt lat="35.98469" lon="-83.860046">
        <ele>259.081225</ele>
        <time>2024-05-11T08:28:09.000Z</time>
      </trkpt>
      <trkpt lat="35.984559" lon="-83.860776">
        <ele>258.794464</ele>
        <time>2024-05-11T08:28:16.000Z</time>
      </trkpt>
      <trkpt lat="35.983243" lon="-83.860509">
        <ele>258.015127</ele>
        <time>2024-05-11T08:28:31.000Z</time>
      </trkpt>
      <trkpt lat="35.981891" lon="-83.860218">
        <ele>256.821737</ele>
        <time>2024-05-11T08:28:46.000Z</time>
      </trkpt>
      <trkpt lat="35.980434" lon="-83.85989">
        <ele>256.337126</ele>
        <time>2024-05-11T08:29:02.000Z</time>
      </trkpt>
      <trkpt lat="35.97993" lon="-83.859737">
        <ele>256.02599</ele>
        <time>2024-05-11T08:29:08.000Z</time>
      </trkpt>
      <trkpt lat="35.979512" lon="-83.859659">
        <ele>255.530727</ele>
        <time>2024-05-11T08:29:13.000Z</time>
      </trkpt>
      <trkpt lat="35.979065" lon="-83.859673">
        <ele>255.017303</ele>
        <time>2024-05-11T08:29:18.000Z</time>
      </trkpt>
      <trkpt lat="35.977772" lon="-83.859832">
        <ele>253.923329</ele>
        <time>2024-05-11T08:29:32.000Z</time>
      </trkpt>
      <trkpt lat="35.977526" lon="-83.859903">
        <ele>253.833121</ele>
        <time>2024-05-11T08:29:35.000Z</time>
      </trkpt>
      <trkpt lat="35.977173" lon="-83.860112">
        <ele>253.685682</ele>
        <time>2024-05-11T08:29:39.000Z</time>
      </trkpt>
      <trkpt lat="35.976236" lon="-83.860692">
        <ele>254.104085</ele>
        <time>2024-05-11T08:29:51.000Z</time>
      </trkpt>
      <trkpt lat="35.975909" lon="-83.860937">
        <ele>254.702938</ele>
        <time>2024-05-11T08:29:55.000Z</time>
      </trkpt>
      <trkpt lat="35.975522" lon="-83.861311">
        <ele>255.453361</ele>
        <time>2024-05-11T08:30:00.000Z</time>
      </trkpt>
      <trkpt lat="35.975049" lon="-83.861902">
        <ele>256.526787</ele>
        <time>2024-05-11T08:30:07.000Z</time>
      </trkpt>
      <trkpt lat="35.974823" lon="-83.862413">
        <ele>257.350811</ele>
        <time>2024-05-11T08:30:12.000Z</time>
      </trkpt>
      <trkpt lat="35.974534" lon="-83.863195">
        <ele>258.556014</ele>
        <time>2024-05-11T08:30:20.000Z</time>
      </trkpt>
      <trkpt lat="35.97446" lon="-83.863317">
        <ele>258.774692</ele>
        <time>2024-05-11T08:30:21.000Z</time>
      </trkpt>
      <trkpt lat="35.974313" lon="-83.863509">
        <ele>259.145136</ele>
        <time>2024-05-11T08:30:23.000Z</time>
      </trkpt>
      <trkpt lat="35.973888" lon="-83.863748">
        <ele>259.441129</ele>
        <time>2024-05-11T08:30:28.000Z</time>
      </trkpt>
      <trkpt lat="35.973797" lon="-83.863776">
        <ele>259.468746</ele>
        <time>2024-05-11T08:30:29.000Z</time>
      </trkpt>
      <trkpt lat="35.973704" lon="-83.863842">
        <ele>259.495872</ele>
        <time>2024-05-11T08:30:30.000Z</time>
      </trkpt>
      <trkpt lat="35.973564" lon="-83.863861">
        <ele>259.532873</ele>
        <time>2024-05-11T08:30:32.000Z</time>
      </trkpt>
      <trkpt lat="35.973497" lon="-83.863929">
        <ele>259.551455</ele>
        <time>2024-05-11T08:30:33.000Z</time>
      </trkpt>
      <trkpt lat="35.973075" lon="-83.863954">
        <ele>259.662373</ele>
        <time>2024-05-11T08:30:38.000Z</time>
      </trkpt>
      <trkpt lat="35.972937" lon="-83.864022">
        <ele>259.697868</ele>
        <time>2024-05-11T08:30:40.000Z</time>
      </trkpt>
      <trkpt lat="35.97233" lon="-83.864026">
        <ele>259.863169</ele>
        <time>2024-05-11T08:30:47.000Z</time>
      </trkpt>
      <trkpt lat="35.97217" lon="-83.864065">
        <ele>259.912268</ele>
        <time>2024-05-11T08:30:49.000Z</time>
      </trkpt>
      <trkpt lat="35.972092" lon="-83.864075">
        <ele>259.935691</ele>
        <time>2024-05-11T08:30:50.000Z</time>
      </trkpt>
      <trkpt lat="35.972376" lon="-83.865174">
        <ele>260.223797</ele>
        <time>2024-05-11T08:31:00.000Z</time>
      </trkpt>
      <trkpt lat="35.972493" lon="-83.865801">
        <ele>260.476987</ele>
        <time>2024-05-11T08:31:06.000Z</time>
      </trkpt>
      <trkpt lat="35.972571" lon="-83.866257">
        <ele>261.544107</ele>
        <time>2024-05-11T08:31:10.000Z</time>
      </trkpt>
      <trkpt lat="35.972586" lon="-83.866316">
        <ele>261.660712</ele>
        <time>2024-05-11T08:31:11.000Z</time>
      </trkpt>
      <trkpt lat="35.97283" lon="-83.867632">
        <ele>264.678575</ele>
        <time>2024-05-11T08:31:23.000Z</time>
      </trkpt>
      <trkpt lat="35.972864" lon="-83.867854">
        <ele>265.175213</ele>
        <time>2024-05-11T08:31:25.000Z</time>
      </trkpt>
      <trkpt lat="35.972858" lon="-83.868068">
        <ele>265.539439</ele>
        <time>2024-05-11T08:31:27.000Z</time>
      </trkpt>
      <trkpt lat="35.972807" lon="-83.868416">
        <ele>266.016527</ele>
        <time>2024-05-11T08:31:30.000Z</time>
      </trkpt>
      <trkpt lat="35.972705" lon="-83.868709">
        <ele>266.435392</ele>
        <time>2024-05-11T08:31:33.000Z</time>
      </trkpt>
      <trkpt lat="35.971964" lon="-83.870445">
        <ele>268.844805</ele>
        <time>2024-05-11T08:31:51.000Z</time>
      </trkpt>
      <trkpt lat="35.971944" lon="-83.870704">
        <ele>269.097314</ele>
        <time>2024-05-11T08:31:53.000Z</time>
      </trkpt>
      <trkpt lat="35.97201" lon="-83.871185">
        <ele>269.559326</ele>
        <time>2024-05-11T08:31:57.000Z</time>
      </trkpt>
      <trkpt lat="35.972006" lon="-83.871309">
        <ele>269.673618</ele>
        <time>2024-05-11T08:31:58.000Z</time>
      </trkpt>
      <trkpt lat="35.971924" lon="-83.871627">
        <ele>269.978783</ele>
        <time>2024-05-11T08:32:01.000Z</time>
      </trkpt>
      <trkpt lat="35.971822" lon="-83.871836">
        <ele>270.232034</ele>
        <time>2024-05-11T08:32:03.000Z</time>
      </trkpt>
      <trkpt lat="35.971622" lon="-83.872091">
        <ele>270.742444</ele>
        <time>2024-05-11T08:32:06.000Z</time>
      </trkpt>
      <trkpt lat="35.971296" lon="-83.872382">
        <ele>271.862859</ele>
        <time>2024-05-11T08:32:10.000Z</time>
      </trkpt>
      <trkpt lat="35.971108" lon="-83.872667">
        <ele>272.702175</ele>
        <time>2024-05-11T08:32:13.000Z</time>
      </trkpt>
      <trkpt lat="35.971046" lon="-83.872901">
        <ele>273.270008</ele>
        <time>2024-05-11T08:32:15.000Z</time>
      </trkpt>
      <trkpt lat="35.971077" lon="-83.873592">
        <ele>274.824661</ele>
        <time>2024-05-11T08:32:21.000Z</time>
      </trkpt>
      <trkpt lat="35.971036" lon="-83.873759">
        <ele>275.226621</ele>
        <time>2024-05-11T08:32:23.000Z</time>
      </trkpt>
      <trkpt lat="35.970951" lon="-83.87391">
        <ele>275.643823</ele>
        <time>2024-05-11T08:32:25.000Z</time>
      </trkpt>
      <trkpt lat="35.970784" lon="-83.873978">
        <ele>276.188167</ele>
        <time>2024-05-11T08:32:27.000Z</time>
      </trkpt>
      <trkpt lat="35.970489" lon="-83.873863">
        <ele>277.15759</ele>
        <time>2024-05-11T08:32:30.000Z</time>
      </trkpt>
      <trkpt lat="35.970381" lon="-83.873889">
        <ele>277.486097</ele>
        <time>2024-05-11T08:32:31.000Z</time>
      </trkpt>
      <trkpt lat="35.970252" lon="-83.873983">
        <ele>277.928546</ele>
        <time>2024-05-11T08:32:33.000Z</time>
      </trkpt>
      <trkpt lat="35.970175" lon="-83.874185">
        <ele>278.476904</ele>
        <time>2024-05-11T08:32:35.000Z</time>
      </trkpt>
      <trkpt lat="35.970165" lon="-83.87457">
        <ele>279.476833</ele>
        <time>2024-05-11T08:32:38.000Z</time>
      </trkpt>
      <trkpt lat="35.970216" lon="-83.874934">
        <ele>280.362008</ele>
        <time>2024-05-11T08:32:41.000Z</time>
      </trkpt>
      <trkpt lat="35.970423" lon="-83.875291">
        <ele>280.861065</ele>
        <time>2024-05-11T08:32:45.000Z</time>
      </trkpt>
      <trkpt lat="35.970553" lon="-83.875472">
        <ele>280.670168</ele>
        <time>2024-05-11T08:32:47.000Z</time>
      </trkpt>
      <trkpt lat="35.97069" lon="-83.875652">
        <ele>280.48758</ele>
        <time>2024-05-11T08:32:49.000Z</time>
      </trkpt>
      <trkpt lat="35.970755" lon="-83.875797">
        <ele>280.353358</ele>
        <time>2024-05-11T08:32:50.000Z</time>
      </trkpt>
      <trkpt lat="35.97074" lon="-83.875891">
        <ele>280.285808</ele>
        <time>2024-05-11T08:32:51.000Z</time>
      </trkpt>
      <trkpt lat="35.970644" lon="-83.876066">
        <ele>280.118131</ele>
        <time>2024-05-11T08:32:53.000Z</time>
      </trkpt>
      <trkpt lat="35.970361" lon="-83.876356">
        <ele>279.779877</ele>
        <time>2024-05-11T08:32:57.000Z</time>
      </trkpt>
      <trkpt lat="35.970288" lon="-83.876506">
        <ele>279.644296</ele>
        <time>2024-05-11T08:32:59.000Z</time>
      </trkpt>
      <trkpt lat="35.970259" lon="-83.876637">
        <ele>279.541785</ele>
        <time>2024-05-11T08:33:00.000Z</time>
      </trkpt>
      <trkpt lat="35.970276" lon="-83.876896">
        <ele>279.338498</ele>
        <time>2024-05-11T08:33:02.000Z</time>
      </trkpt>
      <trkpt lat="35.970468" lon="-83.87809">
        <ele>274.950166</ele>
        <time>2024-05-11T08:33:13.000Z</time>
      </trkpt>
      <trkpt lat="35.970512" lon="-83.878783">
        <ele>272.275723</ele>
        <time>2024-05-11T08:33:19.000Z</time>
      </trkpt>
      <trkpt lat="35.97051" lon="-83.879015">
        <ele>271.441693</ele>
        <time>2024-05-11T08:33:21.000Z</time>
      </trkpt>
      <trkpt lat="35.970472" lon="-83.879319">
        <ele>270.106114</ele>
        <time>2024-05-11T08:33:24.000Z</time>
      </trkpt>
      <trkpt lat="35.970325" lon="-83.880101">
        <ele>266.34705</ele>
        <time>2024-05-11T08:33:31.000Z</time>
      </trkpt>
      <trkpt lat="35.97023" lon="-83.880899">
        <ele>262.659659</ele>
        <time>2024-05-11T08:33:38.000Z</time>
      </trkpt>
      <trkpt lat="35.970198" lon="-83.881306">
        <ele>260.757704</ele>
        <time>2024-05-11T08:33:42.000Z</time>
      </trkpt>
      <trkpt lat="35.970269" lon="-83.881578">
        <ele>260.114316</ele>
        <time>2024-05-11T08:33:45.000Z</time>
      </trkpt>
      <trkpt lat="35.970228" lon="-83.881877">
        <ele>259.566944</ele>
        <time>2024-05-11T08:33:48.000Z</time>
      </trkpt>
      <trkpt lat="35.970173" lon="-83.882876">
        <ele>257.7512</ele>
        <time>2024-05-11T08:33:57.000Z</time>
      </trkpt>
      <trkpt lat="35.970015" lon="-83.883387">
        <ele>256.75479</ele>
        <time>2024-05-11T08:34:02.000Z</time>
      </trkpt>
      <trkpt lat="35.968736" lon="-83.886147">
        <ele>259.119227</ele>
        <time>2024-05-11T08:34:31.000Z</time>
      </trkpt>
      <trkpt lat="35.968171" lon="-83.887301">
        <ele>259.559059</ele>
        <time>2024-05-11T08:34:43.000Z</time>
      </trkpt>
      <trkpt lat="35.967399" lon="-83.889019">
        <ele>258.419047</ele>
        <time>2024-05-11T08:35:01.000Z</time>
      </trkpt>
      <trkpt lat="35.96736" lon="-83.889124">
        <ele>258.344665</ele>
        <time>2024-05-11T08:35:02.000Z</time>
      </trkpt>
      <trkpt lat="35.966907" lon="-83.890039">
        <ele>258.736211</ele>
        <time>2024-05-11T08:35:12.000Z</time>
      </trkpt>
      <trkpt lat="35.966502" lon="-83.890934">
        <ele>259.301059</ele>
        <time>2024-05-11T08:35:21.000Z</time>
      </trkpt>
      <trkpt lat="35.966232" lon="-83.891704">
        <ele>259.476101</ele>
        <time>2024-05-11T08:35:29.000Z</time>
      </trkpt>
      <trkpt lat="35.965887" lon="-83.892745">
        <ele>259.514499</ele>
        <time>2024-05-11T08:35:39.000Z</time>
      </trkpt>
      <trkpt lat="35.9655" lon="-83.894">
        <ele>258.391383</ele>
        <time>2024-05-11T08:35:51.000Z</time>
      </trkpt>
      <trkpt lat="35.965402" lon="-83.894282">
        <ele>257.926637</ele>
        <time>2024-05-11T08:35:54.000Z</time>
      </trkpt>
      <trkpt lat="35.965341" lon="-83.894615">
        <ele>257.4409</ele>
        <time>2024-05-11T08:35:57.000Z</time>
      </trkpt>
      <trkpt lat="35.965223" lon="-83.896595">
        <ele>254.613619</ele>
        <time>2024-05-11T08:36:15.000Z</time>
      </trkpt>
      <trkpt lat="35.965211" lon="-83.896773">
        <ele>254.359797</ele>
        <time>2024-05-11T08:36:17.000Z</time>
      </trkpt>
      <trkpt lat="35.965173" lon="-83.896924">
        <ele>254.154452</ele>
        <time>2024-05-11T08:36:18.000Z</time>
      </trkpt>
      <trkpt lat="35.96514" lon="-83.897005">
        <ele>254.008708</ele>
        <time>2024-05-11T08:36:19.000Z</time>
      </trkpt>
      <trkpt lat="35.965117" lon="-83.897049">
        <ele>253.938156</ele>
        <time>2024-05-11T08:36:19.000Z</time>
      </trkpt>
      <trkpt lat="35.964997" lon="-83.897114">
        <ele>253.718661</ele>
        <time>2024-05-11T08:36:20.000Z</time>
      </trkpt>
      <trkpt lat="35.964675" lon="-83.897112">
        <ele>253.149001</ele>
        <time>2024-05-11T08:36:24.000Z</time>
      </trkpt>
      <trkpt lat="35.964548" lon="-83.897179">
        <ele>253.0031</ele>
        <time>2024-05-11T08:36:26.000Z</time>
      </trkpt>
      <trkpt lat="35.96448" lon="-83.897297">
        <ele>252.879091</ele>
        <time>2024-05-11T08:36:27.000Z</time>
      </trkpt>
      <trkpt lat="35.964415" lon="-83.897601">
        <ele>252.589038</ele>
        <time>2024-05-11T08:36:30.000Z</time>
      </trkpt>
      <trkpt lat="35.964433" lon="-83.898301">
        <ele>251.967743</ele>
        <time>2024-05-11T08:36:36.000Z</time>
      </trkpt>
      <trkpt lat="35.964213" lon="-83.898322">
        <ele>251.716627</ele>
        <time>2024-05-11T08:36:38.000Z</time>
      </trkpt>
      <trkpt lat="35.964068" lon="-83.898129">
        <ele>251.497177</ele>
        <time>2024-05-11T08:36:40.000Z</time>
      </trkpt>
      <trkpt lat="35.963996" lon="-83.897717">
        <ele>251.160474743</ele>
        <time>2024-05-11T08:36:44.000Z</time>
      </trkpt>
      <trkpt lat="35.96385" lon="-83.897265">
        <ele>250.771711932</ele>
        <time>2024-05-11T08:36:48.000Z</time>
      </trkpt>
      <trkpt lat="35.963778" lon="-83.897123">
        <ele>250.637857555</ele>
        <time>2024-05-11T08:36:50.000Z</time>
      </trkpt>
      <trkpt lat="35.963214" lon="-83.896929">
        <ele>250.060042417</ele>
        <time>2024-05-11T08:36:57.000Z</time>
      </trkpt>
      <trkpt lat="35.963114" lon="-83.896938">
        <ele>249.961085028</ele>
        <time>2024-05-11T08:36:58.000Z</time>
      </trkpt>
    </trkseg>
  </trk>
</gpx>

<!--
Performance optimized by W3 Total Cache. Learn more: https://www.boldgrid.com/w3-total-cache/?utm_source=w3tc&utm_medium=footer_comment&utm_campaign=free_plugin

Page Caching using Disk: Enhanced{w3tc_pagecache_reject_reason} 

Served from: www.aquabike.world @ 2026-05-10 18:57:32 by W3 Total Cache
-->